<?xml version="1.0" encoding="UTF-8" standalone="no" ?>
<gpx xmlns="http://www.topografix.com/GPX/1/1" xmlns:xsi="http://www.w3.org/2001/XMLSchema-instance" xsi:schemaLocation="http://www.topografix.com/GPX/1/1 http://www.topografix.com/GPX/1/1/gpx.xsd" version="1.1" creator="VisuGPX - https://www.visugpx.com">
  <metadata>
    <name>Trail chez M. Hion</name>
    <desc><![CDATA[Ça fait mal mais qu\'est-ce que c bon !]]></desc>
  </metadata>
  <trk>
    <name><![CDATA[14-JUIN-12 01:04:44 PM]]></name>
    <trkseg>
      <trkpt lat="49.04522" lon="1.35747">
        <ele>121.74</ele>
        <time>2012-06-14T11:37:23Z</time>
      </trkpt>
      <trkpt lat="49.04522" lon="1.35747">
        <ele>126.55</ele>
        <time>2012-06-14T11:37:26Z</time>
      </trkpt>
      <trkpt lat="49.04522" lon="1.35747">
        <ele>121.74</ele>
        <time>2012-06-14T11:37:27Z</time>
      </trkpt>
      <trkpt lat="49.04522" lon="1.35747">
        <ele>124.63</ele>
        <time>2012-06-14T11:37:30Z</time>
      </trkpt>
      <trkpt lat="49.04522" lon="1.35747">
        <ele>121.74</ele>
        <time>2012-06-14T11:37:33Z</time>
      </trkpt>
      <trkpt lat="49.04522" lon="1.35747">
        <ele>125.11</ele>
        <time>2012-06-14T11:37:35Z</time>
      </trkpt>
      <trkpt lat="49.04522" lon="1.35747">
        <ele>119.34</ele>
        <time>2012-06-14T11:37:36Z</time>
      </trkpt>
      <trkpt lat="49.04522" lon="1.35747">
        <ele>124.15</ele>
        <time>2012-06-14T11:37:37Z</time>
      </trkpt>
      <trkpt lat="49.04522" lon="1.35748">
        <ele>120.78</ele>
        <time>2012-06-14T11:37:46Z</time>
      </trkpt>
      <trkpt lat="49.04522" lon="1.35749">
        <ele>122.71</ele>
        <time>2012-06-14T11:38:01Z</time>
      </trkpt>
      <trkpt lat="49.04522" lon="1.35749">
        <ele>123.19</ele>
        <time>2012-06-14T11:38:19Z</time>
      </trkpt>
      <trkpt lat="49.04522" lon="1.3575">
        <ele>123.67</ele>
        <time>2012-06-14T11:38:36Z</time>
      </trkpt>
      <trkpt lat="49.04522" lon="1.3575">
        <ele>123.67</ele>
        <time>2012-06-14T11:39:04Z</time>
      </trkpt>
      <trkpt lat="49.04521" lon="1.35747">
        <ele>123.67</ele>
        <time>2012-06-14T11:39:19Z</time>
      </trkpt>
      <trkpt lat="49.04521" lon="1.35747">
        <ele>123.19</ele>
        <time>2012-06-14T11:39:41Z</time>
      </trkpt>
      <trkpt lat="49.0452" lon="1.35747">
        <ele>123.19</ele>
        <time>2012-06-14T11:40:02Z</time>
      </trkpt>
      <trkpt lat="49.04518" lon="1.35745">
        <ele>123.67</ele>
        <time>2012-06-14T11:40:23Z</time>
      </trkpt>
      <trkpt lat="49.04515" lon="1.35739">
        <ele>123.19</ele>
        <time>2012-06-14T11:40:31Z</time>
      </trkpt>
      <trkpt lat="49.04522" lon="1.35725">
        <ele>123.19</ele>
        <time>2012-06-14T11:40:42Z</time>
      </trkpt>
      <trkpt lat="49.0453" lon="1.35721">
        <ele>122.71</ele>
        <time>2012-06-14T11:40:48Z</time>
      </trkpt>
      <trkpt lat="49.04539" lon="1.35713">
        <ele>123.19</ele>
        <time>2012-06-14T11:40:54Z</time>
      </trkpt>
      <trkpt lat="49.04557" lon="1.35695">
        <ele>122.71</ele>
        <time>2012-06-14T11:41:07Z</time>
      </trkpt>
      <trkpt lat="49.04562" lon="1.35679">
        <ele>123.19</ele>
        <time>2012-06-14T11:41:11Z</time>
      </trkpt>
      <trkpt lat="49.04555" lon="1.35648">
        <ele>123.67</ele>
        <time>2012-06-14T11:41:17Z</time>
      </trkpt>
      <trkpt lat="49.04534" lon="1.35607">
        <ele>122.22</ele>
        <time>2012-06-14T11:41:27Z</time>
      </trkpt>
      <trkpt lat="49.04512" lon="1.35561">
        <ele>122.22</ele>
        <time>2012-06-14T11:41:40Z</time>
      </trkpt>
      <trkpt lat="49.04512" lon="1.35561">
        <ele>121.74</ele>
        <time>2012-06-14T11:41:42Z</time>
      </trkpt>
      <trkpt lat="49.04504" lon="1.35544">
        <ele>122.22</ele>
        <time>2012-06-14T11:41:49Z</time>
      </trkpt>
      <trkpt lat="49.04495" lon="1.3552">
        <ele>122.22</ele>
        <time>2012-06-14T11:41:55Z</time>
      </trkpt>
      <trkpt lat="49.04506" lon="1.35461">
        <ele>122.22</ele>
        <time>2012-06-14T11:42:06Z</time>
      </trkpt>
      <trkpt lat="49.04527" lon="1.3542">
        <ele>121.26</ele>
        <time>2012-06-14T11:42:16Z</time>
      </trkpt>
      <trkpt lat="49.04541" lon="1.35393">
        <ele>121.74</ele>
        <time>2012-06-14T11:42:25Z</time>
      </trkpt>
      <trkpt lat="49.04556" lon="1.35347">
        <ele>120.78</ele>
        <time>2012-06-14T11:42:37Z</time>
      </trkpt>
      <trkpt lat="49.04572" lon="1.35302">
        <ele>120.3</ele>
        <time>2012-06-14T11:42:48Z</time>
      </trkpt>
      <trkpt lat="49.0459" lon="1.35265">
        <ele>120.3</ele>
        <time>2012-06-14T11:42:58Z</time>
      </trkpt>
      <trkpt lat="49.04617" lon="1.3523">
        <ele>119.82</ele>
        <time>2012-06-14T11:43:09Z</time>
      </trkpt>
      <trkpt lat="49.04636" lon="1.35197">
        <ele>118.38</ele>
        <time>2012-06-14T11:43:18Z</time>
      </trkpt>
      <trkpt lat="49.04657" lon="1.35171">
        <ele>116.94</ele>
        <time>2012-06-14T11:43:28Z</time>
      </trkpt>
      <trkpt lat="49.04681" lon="1.35146">
        <ele>115.01</ele>
        <time>2012-06-14T11:43:39Z</time>
      </trkpt>
      <trkpt lat="49.04704" lon="1.35125">
        <ele>113.57</ele>
        <time>2012-06-14T11:43:49Z</time>
      </trkpt>
      <trkpt lat="49.0472" lon="1.35093">
        <ele>110.69</ele>
        <time>2012-06-14T11:43:59Z</time>
      </trkpt>
      <trkpt lat="49.04739" lon="1.35061">
        <ele>107.81</ele>
        <time>2012-06-14T11:44:11Z</time>
      </trkpt>
      <trkpt lat="49.04768" lon="1.34993">
        <ele>104.44</ele>
        <time>2012-06-14T11:44:24Z</time>
      </trkpt>
      <trkpt lat="49.04773" lon="1.34983">
        <ele>103.96</ele>
        <time>2012-06-14T11:44:26Z</time>
      </trkpt>
      <trkpt lat="49.04784" lon="1.34963">
        <ele>102.04</ele>
        <time>2012-06-14T11:44:33Z</time>
      </trkpt>
      <trkpt lat="49.04802" lon="1.34932">
        <ele>99.15</ele>
        <time>2012-06-14T11:44:41Z</time>
      </trkpt>
      <trkpt lat="49.04818" lon="1.34892">
        <ele>95.79</ele>
        <time>2012-06-14T11:44:51Z</time>
      </trkpt>
      <trkpt lat="49.04832" lon="1.34842">
        <ele>94.83</ele>
        <time>2012-06-14T11:45:02Z</time>
      </trkpt>
      <trkpt lat="49.04848" lon="1.34785">
        <ele>92.42</ele>
        <time>2012-06-14T11:45:10Z</time>
      </trkpt>
      <trkpt lat="49.04859" lon="1.34735">
        <ele>90.02</ele>
        <time>2012-06-14T11:45:19Z</time>
      </trkpt>
      <trkpt lat="49.04861" lon="1.3473">
        <ele>90.02</ele>
        <time>2012-06-14T11:45:20Z</time>
      </trkpt>
      <trkpt lat="49.04863" lon="1.34725">
        <ele>90.02</ele>
        <time>2012-06-14T11:45:21Z</time>
      </trkpt>
      <trkpt lat="49.04865" lon="1.3472">
        <ele>89.06</ele>
        <time>2012-06-14T11:45:22Z</time>
      </trkpt>
      <trkpt lat="49.04867" lon="1.34714">
        <ele>88.58</ele>
        <time>2012-06-14T11:45:23Z</time>
      </trkpt>
      <trkpt lat="49.04868" lon="1.34709">
        <ele>89.06</ele>
        <time>2012-06-14T11:45:24Z</time>
      </trkpt>
      <trkpt lat="49.0488" lon="1.34666">
        <ele>87.62</ele>
        <time>2012-06-14T11:45:33Z</time>
      </trkpt>
      <trkpt lat="49.04891" lon="1.34629">
        <ele>86.18</ele>
        <time>2012-06-14T11:45:42Z</time>
      </trkpt>
      <trkpt lat="49.04905" lon="1.34578">
        <ele>83.77</ele>
        <time>2012-06-14T11:45:52Z</time>
      </trkpt>
      <trkpt lat="49.04906" lon="1.34572">
        <ele>83.29</ele>
        <time>2012-06-14T11:45:53Z</time>
      </trkpt>
      <trkpt lat="49.04911" lon="1.34548">
        <ele>82.81</ele>
        <time>2012-06-14T11:45:57Z</time>
      </trkpt>
      <trkpt lat="49.04913" lon="1.34543">
        <ele>81.85</ele>
        <time>2012-06-14T11:45:58Z</time>
      </trkpt>
      <trkpt lat="49.04919" lon="1.34511">
        <ele>81.85</ele>
        <time>2012-06-14T11:46:03Z</time>
      </trkpt>
      <trkpt lat="49.04921" lon="1.34505">
        <ele>81.37</ele>
        <time>2012-06-14T11:46:04Z</time>
      </trkpt>
      <trkpt lat="49.04921" lon="1.345">
        <ele>80.89</ele>
        <time>2012-06-14T11:46:05Z</time>
      </trkpt>
      <trkpt lat="49.04923" lon="1.34495">
        <ele>81.37</ele>
        <time>2012-06-14T11:46:06Z</time>
      </trkpt>
      <trkpt lat="49.04924" lon="1.3449">
        <ele>81.37</ele>
        <time>2012-06-14T11:46:07Z</time>
      </trkpt>
      <trkpt lat="49.04925" lon="1.34485">
        <ele>80.89</ele>
        <time>2012-06-14T11:46:08Z</time>
      </trkpt>
      <trkpt lat="49.04927" lon="1.34479">
        <ele>80.89</ele>
        <time>2012-06-14T11:46:09Z</time>
      </trkpt>
      <trkpt lat="49.04937" lon="1.34444">
        <ele>78.97</ele>
        <time>2012-06-14T11:46:17Z</time>
      </trkpt>
      <trkpt lat="49.04939" lon="1.3444">
        <ele>78.97</ele>
        <time>2012-06-14T11:46:18Z</time>
      </trkpt>
      <trkpt lat="49.04941" lon="1.34435">
        <ele>78.48</ele>
        <time>2012-06-14T11:46:19Z</time>
      </trkpt>
      <trkpt lat="49.04944" lon="1.34427">
        <ele>78.48</ele>
        <time>2012-06-14T11:46:21Z</time>
      </trkpt>
      <trkpt lat="49.04946" lon="1.34422">
        <ele>78</ele>
        <time>2012-06-14T11:46:22Z</time>
      </trkpt>
      <trkpt lat="49.04947" lon="1.34418">
        <ele>78</ele>
        <time>2012-06-14T11:46:23Z</time>
      </trkpt>
      <trkpt lat="49.0495" lon="1.34414">
        <ele>78</ele>
        <time>2012-06-14T11:46:24Z</time>
      </trkpt>
      <trkpt lat="49.04952" lon="1.34409">
        <ele>77.52</ele>
        <time>2012-06-14T11:46:25Z</time>
      </trkpt>
      <trkpt lat="49.04953" lon="1.34405">
        <ele>77.52</ele>
        <time>2012-06-14T11:46:26Z</time>
      </trkpt>
      <trkpt lat="49.04955" lon="1.344">
        <ele>77.52</ele>
        <time>2012-06-14T11:46:27Z</time>
      </trkpt>
      <trkpt lat="49.04956" lon="1.34397">
        <ele>77.04</ele>
        <time>2012-06-14T11:46:28Z</time>
      </trkpt>
      <trkpt lat="49.04961" lon="1.34384">
        <ele>76.56</ele>
        <time>2012-06-14T11:46:31Z</time>
      </trkpt>
      <trkpt lat="49.04963" lon="1.3438">
        <ele>76.08</ele>
        <time>2012-06-14T11:46:32Z</time>
      </trkpt>
      <trkpt lat="49.04966" lon="1.34372">
        <ele>76.08</ele>
        <time>2012-06-14T11:46:34Z</time>
      </trkpt>
      <trkpt lat="49.04968" lon="1.34368">
        <ele>75.6</ele>
        <time>2012-06-14T11:46:35Z</time>
      </trkpt>
      <trkpt lat="49.04969" lon="1.34364">
        <ele>76.08</ele>
        <time>2012-06-14T11:46:36Z</time>
      </trkpt>
      <trkpt lat="49.04971" lon="1.3436">
        <ele>75.12</ele>
        <time>2012-06-14T11:46:37Z</time>
      </trkpt>
      <trkpt lat="49.04973" lon="1.34357">
        <ele>75.6</ele>
        <time>2012-06-14T11:46:38Z</time>
      </trkpt>
      <trkpt lat="49.04974" lon="1.34353">
        <ele>75.12</ele>
        <time>2012-06-14T11:46:39Z</time>
      </trkpt>
      <trkpt lat="49.04984" lon="1.34314">
        <ele>73.68</ele>
        <time>2012-06-14T11:46:49Z</time>
      </trkpt>
      <trkpt lat="49.04991" lon="1.34302">
        <ele>72.72</ele>
        <time>2012-06-14T11:46:52Z</time>
      </trkpt>
      <trkpt lat="49.04993" lon="1.34299">
        <ele>72.24</ele>
        <time>2012-06-14T11:46:53Z</time>
      </trkpt>
      <trkpt lat="49.05016" lon="1.34266">
        <ele>69.35</ele>
        <time>2012-06-14T11:47:03Z</time>
      </trkpt>
      <trkpt lat="49.05034" lon="1.34234">
        <ele>66.47</ele>
        <time>2012-06-14T11:47:12Z</time>
      </trkpt>
      <trkpt lat="49.05043" lon="1.34199">
        <ele>63.1</ele>
        <time>2012-06-14T11:47:19Z</time>
      </trkpt>
      <trkpt lat="49.05053" lon="1.34167">
        <ele>60.22</ele>
        <time>2012-06-14T11:47:25Z</time>
      </trkpt>
      <trkpt lat="49.05056" lon="1.34158">
        <ele>59.74</ele>
        <time>2012-06-14T11:47:27Z</time>
      </trkpt>
      <trkpt lat="49.05058" lon="1.34154">
        <ele>59.26</ele>
        <time>2012-06-14T11:47:28Z</time>
      </trkpt>
      <trkpt lat="49.0506" lon="1.3415">
        <ele>57.82</ele>
        <time>2012-06-14T11:47:29Z</time>
      </trkpt>
      <trkpt lat="49.05062" lon="1.34147">
        <ele>57.34</ele>
        <time>2012-06-14T11:47:30Z</time>
      </trkpt>
      <trkpt lat="49.05064" lon="1.34144">
        <ele>57.82</ele>
        <time>2012-06-14T11:47:31Z</time>
      </trkpt>
      <trkpt lat="49.05067" lon="1.34139">
        <ele>56.86</ele>
        <time>2012-06-14T11:47:32Z</time>
      </trkpt>
      <trkpt lat="49.0508" lon="1.34113">
        <ele>53.01</ele>
        <time>2012-06-14T11:47:39Z</time>
      </trkpt>
      <trkpt lat="49.05082" lon="1.3411">
        <ele>53.01</ele>
        <time>2012-06-14T11:47:40Z</time>
      </trkpt>
      <trkpt lat="49.05097" lon="1.34094">
        <ele>49.16</ele>
        <time>2012-06-14T11:47:46Z</time>
      </trkpt>
      <trkpt lat="49.05099" lon="1.34091">
        <ele>48.68</ele>
        <time>2012-06-14T11:47:47Z</time>
      </trkpt>
      <trkpt lat="49.05104" lon="1.34067">
        <ele>46.76</ele>
        <time>2012-06-14T11:47:52Z</time>
      </trkpt>
      <trkpt lat="49.05106" lon="1.34063">
        <ele>46.28</ele>
        <time>2012-06-14T11:47:53Z</time>
      </trkpt>
      <trkpt lat="49.05108" lon="1.34059">
        <ele>46.28</ele>
        <time>2012-06-14T11:47:54Z</time>
      </trkpt>
      <trkpt lat="49.05111" lon="1.34055">
        <ele>46.76</ele>
        <time>2012-06-14T11:47:55Z</time>
      </trkpt>
      <trkpt lat="49.05114" lon="1.34052">
        <ele>46.76</ele>
        <time>2012-06-14T11:47:56Z</time>
      </trkpt>
      <trkpt lat="49.05117" lon="1.34051">
        <ele>47.24</ele>
        <time>2012-06-14T11:47:57Z</time>
      </trkpt>
      <trkpt lat="49.0512" lon="1.3405">
        <ele>47.24</ele>
        <time>2012-06-14T11:47:58Z</time>
      </trkpt>
      <trkpt lat="49.05123" lon="1.3405">
        <ele>47.24</ele>
        <time>2012-06-14T11:47:59Z</time>
      </trkpt>
      <trkpt lat="49.05125" lon="1.34048">
        <ele>47.72</ele>
        <time>2012-06-14T11:48:00Z</time>
      </trkpt>
      <trkpt lat="49.05128" lon="1.34047">
        <ele>48.68</ele>
        <time>2012-06-14T11:48:01Z</time>
      </trkpt>
      <trkpt lat="49.0513" lon="1.34046">
        <ele>48.2</ele>
        <time>2012-06-14T11:48:02Z</time>
      </trkpt>
      <trkpt lat="49.05133" lon="1.34044">
        <ele>48.68</ele>
        <time>2012-06-14T11:48:03Z</time>
      </trkpt>
      <trkpt lat="49.05136" lon="1.34041">
        <ele>49.16</ele>
        <time>2012-06-14T11:48:04Z</time>
      </trkpt>
      <trkpt lat="49.05139" lon="1.34039">
        <ele>49.65</ele>
        <time>2012-06-14T11:48:05Z</time>
      </trkpt>
      <trkpt lat="49.05142" lon="1.34036">
        <ele>49.65</ele>
        <time>2012-06-14T11:48:06Z</time>
      </trkpt>
      <trkpt lat="49.05145" lon="1.34034">
        <ele>50.13</ele>
        <time>2012-06-14T11:48:07Z</time>
      </trkpt>
      <trkpt lat="49.05148" lon="1.34032">
        <ele>50.61</ele>
        <time>2012-06-14T11:48:08Z</time>
      </trkpt>
      <trkpt lat="49.0516" lon="1.3402">
        <ele>52.53</ele>
        <time>2012-06-14T11:48:13Z</time>
      </trkpt>
      <trkpt lat="49.05162" lon="1.34019">
        <ele>52.53</ele>
        <time>2012-06-14T11:48:14Z</time>
      </trkpt>
      <trkpt lat="49.05165" lon="1.34018">
        <ele>53.01</ele>
        <time>2012-06-14T11:48:15Z</time>
      </trkpt>
      <trkpt lat="49.05188" lon="1.34">
        <ele>55.89</ele>
        <time>2012-06-14T11:48:24Z</time>
      </trkpt>
      <trkpt lat="49.05198" lon="1.33991">
        <ele>57.34</ele>
        <time>2012-06-14T11:48:28Z</time>
      </trkpt>
      <trkpt lat="49.052" lon="1.3399">
        <ele>57.82</ele>
        <time>2012-06-14T11:48:29Z</time>
      </trkpt>
      <trkpt lat="49.05203" lon="1.33989">
        <ele>57.82</ele>
        <time>2012-06-14T11:48:30Z</time>
      </trkpt>
      <trkpt lat="49.05205" lon="1.33987">
        <ele>58.3</ele>
        <time>2012-06-14T11:48:31Z</time>
      </trkpt>
      <trkpt lat="49.05208" lon="1.33986">
        <ele>58.78</ele>
        <time>2012-06-14T11:48:32Z</time>
      </trkpt>
      <trkpt lat="49.05212" lon="1.33985">
        <ele>58.78</ele>
        <time>2012-06-14T11:48:33Z</time>
      </trkpt>
      <trkpt lat="49.05215" lon="1.33984">
        <ele>59.26</ele>
        <time>2012-06-14T11:48:34Z</time>
      </trkpt>
      <trkpt lat="49.05218" lon="1.33983">
        <ele>59.26</ele>
        <time>2012-06-14T11:48:35Z</time>
      </trkpt>
      <trkpt lat="49.0522" lon="1.33982">
        <ele>59.74</ele>
        <time>2012-06-14T11:48:36Z</time>
      </trkpt>
      <trkpt lat="49.05224" lon="1.33981">
        <ele>60.22</ele>
        <time>2012-06-14T11:48:37Z</time>
      </trkpt>
      <trkpt lat="49.05227" lon="1.3398">
        <ele>60.22</ele>
        <time>2012-06-14T11:48:38Z</time>
      </trkpt>
      <trkpt lat="49.05229" lon="1.3398">
        <ele>60.7</ele>
        <time>2012-06-14T11:48:39Z</time>
      </trkpt>
      <trkpt lat="49.05232" lon="1.33978">
        <ele>61.18</ele>
        <time>2012-06-14T11:48:40Z</time>
      </trkpt>
      <trkpt lat="49.05249" lon="1.33972">
        <ele>62.62</ele>
        <time>2012-06-14T11:48:46Z</time>
      </trkpt>
      <trkpt lat="49.05252" lon="1.33972">
        <ele>63.1</ele>
        <time>2012-06-14T11:48:47Z</time>
      </trkpt>
      <trkpt lat="49.05281" lon="1.33954">
        <ele>62.14</ele>
        <time>2012-06-14T11:48:58Z</time>
      </trkpt>
      <trkpt lat="49.05304" lon="1.33929">
        <ele>61.18</ele>
        <time>2012-06-14T11:49:07Z</time>
      </trkpt>
      <trkpt lat="49.05327" lon="1.33906">
        <ele>62.14</ele>
        <time>2012-06-14T11:49:17Z</time>
      </trkpt>
      <trkpt lat="49.05349" lon="1.33884">
        <ele>62.62</ele>
        <time>2012-06-14T11:49:27Z</time>
      </trkpt>
      <trkpt lat="49.05375" lon="1.33862">
        <ele>63.58</ele>
        <time>2012-06-14T11:49:37Z</time>
      </trkpt>
      <trkpt lat="49.05399" lon="1.33842">
        <ele>62.62</ele>
        <time>2012-06-14T11:49:47Z</time>
      </trkpt>
      <trkpt lat="49.05421" lon="1.33824">
        <ele>61.18</ele>
        <time>2012-06-14T11:49:56Z</time>
      </trkpt>
      <trkpt lat="49.05443" lon="1.33804">
        <ele>60.7</ele>
        <time>2012-06-14T11:50:04Z</time>
      </trkpt>
      <trkpt lat="49.05464" lon="1.33787">
        <ele>60.7</ele>
        <time>2012-06-14T11:50:12Z</time>
      </trkpt>
      <trkpt lat="49.05487" lon="1.33761">
        <ele>59.74</ele>
        <time>2012-06-14T11:50:21Z</time>
      </trkpt>
      <trkpt lat="49.0551" lon="1.33736">
        <ele>58.3</ele>
        <time>2012-06-14T11:50:31Z</time>
      </trkpt>
      <trkpt lat="49.05535" lon="1.33711">
        <ele>56.86</ele>
        <time>2012-06-14T11:50:41Z</time>
      </trkpt>
      <trkpt lat="49.05552" lon="1.33691">
        <ele>55.41</ele>
        <time>2012-06-14T11:50:48Z</time>
      </trkpt>
      <trkpt lat="49.05554" lon="1.33687">
        <ele>55.41</ele>
        <time>2012-06-14T11:50:49Z</time>
      </trkpt>
      <trkpt lat="49.05556" lon="1.33683">
        <ele>55.41</ele>
        <time>2012-06-14T11:50:50Z</time>
      </trkpt>
      <trkpt lat="49.05558" lon="1.3368">
        <ele>54.93</ele>
        <time>2012-06-14T11:50:51Z</time>
      </trkpt>
      <trkpt lat="49.0556" lon="1.33676">
        <ele>55.41</ele>
        <time>2012-06-14T11:50:52Z</time>
      </trkpt>
      <trkpt lat="49.05579" lon="1.33647">
        <ele>53.97</ele>
        <time>2012-06-14T11:51:01Z</time>
      </trkpt>
      <trkpt lat="49.05587" lon="1.33636">
        <ele>53.01</ele>
        <time>2012-06-14T11:51:04Z</time>
      </trkpt>
      <trkpt lat="49.0559" lon="1.33632">
        <ele>53.49</ele>
        <time>2012-06-14T11:51:05Z</time>
      </trkpt>
      <trkpt lat="49.05611" lon="1.33605">
        <ele>52.05</ele>
        <time>2012-06-14T11:51:15Z</time>
      </trkpt>
      <trkpt lat="49.05614" lon="1.33602">
        <ele>51.57</ele>
        <time>2012-06-14T11:51:16Z</time>
      </trkpt>
      <trkpt lat="49.05616" lon="1.33599">
        <ele>51.09</ele>
        <time>2012-06-14T11:51:17Z</time>
      </trkpt>
      <trkpt lat="49.05642" lon="1.33567">
        <ele>49.65</ele>
        <time>2012-06-14T11:51:28Z</time>
      </trkpt>
      <trkpt lat="49.05664" lon="1.33522">
        <ele>47.24</ele>
        <time>2012-06-14T11:51:40Z</time>
      </trkpt>
      <trkpt lat="49.05665" lon="1.33518">
        <ele>46.76</ele>
        <time>2012-06-14T11:51:41Z</time>
      </trkpt>
      <trkpt lat="49.05667" lon="1.33513">
        <ele>46.76</ele>
        <time>2012-06-14T11:51:42Z</time>
      </trkpt>
      <trkpt lat="49.05668" lon="1.33509">
        <ele>46.28</ele>
        <time>2012-06-14T11:51:43Z</time>
      </trkpt>
      <trkpt lat="49.0567" lon="1.33505">
        <ele>45.32</ele>
        <time>2012-06-14T11:51:44Z</time>
      </trkpt>
      <trkpt lat="49.05673" lon="1.33502">
        <ele>46.28</ele>
        <time>2012-06-14T11:51:45Z</time>
      </trkpt>
      <trkpt lat="49.05675" lon="1.33499">
        <ele>45.32</ele>
        <time>2012-06-14T11:51:46Z</time>
      </trkpt>
      <trkpt lat="49.05678" lon="1.33497">
        <ele>44.84</ele>
        <time>2012-06-14T11:51:47Z</time>
      </trkpt>
      <trkpt lat="49.05681" lon="1.33495">
        <ele>45.8</ele>
        <time>2012-06-14T11:51:48Z</time>
      </trkpt>
      <trkpt lat="49.05684" lon="1.33493">
        <ele>45.32</ele>
        <time>2012-06-14T11:51:49Z</time>
      </trkpt>
      <trkpt lat="49.05718" lon="1.33466">
        <ele>45.32</ele>
        <time>2012-06-14T11:52:01Z</time>
      </trkpt>
      <trkpt lat="49.05719" lon="1.33463">
        <ele>44.84</ele>
        <time>2012-06-14T11:52:02Z</time>
      </trkpt>
      <trkpt lat="49.05722" lon="1.33462">
        <ele>44.84</ele>
        <time>2012-06-14T11:52:03Z</time>
      </trkpt>
      <trkpt lat="49.05734" lon="1.33455">
        <ele>45.32</ele>
        <time>2012-06-14T11:52:07Z</time>
      </trkpt>
      <trkpt lat="49.05735" lon="1.33453">
        <ele>45.32</ele>
        <time>2012-06-14T11:52:08Z</time>
      </trkpt>
      <trkpt lat="49.05737" lon="1.33451">
        <ele>45.8</ele>
        <time>2012-06-14T11:52:09Z</time>
      </trkpt>
      <trkpt lat="49.05739" lon="1.33448">
        <ele>45.8</ele>
        <time>2012-06-14T11:52:10Z</time>
      </trkpt>
      <trkpt lat="49.05742" lon="1.33446">
        <ele>45.8</ele>
        <time>2012-06-14T11:52:11Z</time>
      </trkpt>
      <trkpt lat="49.05768" lon="1.33433">
        <ele>46.76</ele>
        <time>2012-06-14T11:52:21Z</time>
      </trkpt>
      <trkpt lat="49.05792" lon="1.33419">
        <ele>49.65</ele>
        <time>2012-06-14T11:52:31Z</time>
      </trkpt>
      <trkpt lat="49.05793" lon="1.33418">
        <ele>49.16</ele>
        <time>2012-06-14T11:52:32Z</time>
      </trkpt>
      <trkpt lat="49.05795" lon="1.33416">
        <ele>49.65</ele>
        <time>2012-06-14T11:52:33Z</time>
      </trkpt>
      <trkpt lat="49.05796" lon="1.33414">
        <ele>49.65</ele>
        <time>2012-06-14T11:52:34Z</time>
      </trkpt>
      <trkpt lat="49.05826" lon="1.33396">
        <ele>52.05</ele>
        <time>2012-06-14T11:52:46Z</time>
      </trkpt>
      <trkpt lat="49.05848" lon="1.33377">
        <ele>53.49</ele>
        <time>2012-06-14T11:52:56Z</time>
      </trkpt>
      <trkpt lat="49.05877" lon="1.33365">
        <ele>55.41</ele>
        <time>2012-06-14T11:53:08Z</time>
      </trkpt>
      <trkpt lat="49.05908" lon="1.33357">
        <ele>56.86</ele>
        <time>2012-06-14T11:53:18Z</time>
      </trkpt>
      <trkpt lat="49.05935" lon="1.33351">
        <ele>57.82</ele>
        <time>2012-06-14T11:53:27Z</time>
      </trkpt>
      <trkpt lat="49.05957" lon="1.33343">
        <ele>59.74</ele>
        <time>2012-06-14T11:53:36Z</time>
      </trkpt>
      <trkpt lat="49.0598" lon="1.33325">
        <ele>60.7</ele>
        <time>2012-06-14T11:53:43Z</time>
      </trkpt>
      <trkpt lat="49.06" lon="1.33298">
        <ele>62.14</ele>
        <time>2012-06-14T11:53:52Z</time>
      </trkpt>
      <trkpt lat="49.06019" lon="1.33271">
        <ele>63.1</ele>
        <time>2012-06-14T11:54:02Z</time>
      </trkpt>
      <trkpt lat="49.06025" lon="1.33263">
        <ele>63.58</ele>
        <time>2012-06-14T11:54:05Z</time>
      </trkpt>
      <trkpt lat="49.06027" lon="1.33261">
        <ele>64.07</ele>
        <time>2012-06-14T11:54:06Z</time>
      </trkpt>
      <trkpt lat="49.06029" lon="1.33258">
        <ele>64.07</ele>
        <time>2012-06-14T11:54:07Z</time>
      </trkpt>
      <trkpt lat="49.06045" lon="1.33233">
        <ele>65.51</ele>
        <time>2012-06-14T11:54:17Z</time>
      </trkpt>
      <trkpt lat="49.06064" lon="1.33199">
        <ele>66.95</ele>
        <time>2012-06-14T11:54:29Z</time>
      </trkpt>
      <trkpt lat="49.0607" lon="1.33186">
        <ele>67.91</ele>
        <time>2012-06-14T11:54:33Z</time>
      </trkpt>
      <trkpt lat="49.06072" lon="1.33183">
        <ele>67.43</ele>
        <time>2012-06-14T11:54:34Z</time>
      </trkpt>
      <trkpt lat="49.06083" lon="1.33149">
        <ele>68.39</ele>
        <time>2012-06-14T11:54:42Z</time>
      </trkpt>
      <trkpt lat="49.06094" lon="1.33126">
        <ele>68.87</ele>
        <time>2012-06-14T11:54:49Z</time>
      </trkpt>
      <trkpt lat="49.06095" lon="1.33122">
        <ele>69.35</ele>
        <time>2012-06-14T11:54:50Z</time>
      </trkpt>
      <trkpt lat="49.06111" lon="1.33079">
        <ele>70.31</ele>
        <time>2012-06-14T11:55:00Z</time>
      </trkpt>
      <trkpt lat="49.06125" lon="1.33048">
        <ele>70.79</ele>
        <time>2012-06-14T11:55:08Z</time>
      </trkpt>
      <trkpt lat="49.06126" lon="1.33044">
        <ele>71.27</ele>
        <time>2012-06-14T11:55:09Z</time>
      </trkpt>
      <trkpt lat="49.06128" lon="1.3304">
        <ele>71.27</ele>
        <time>2012-06-14T11:55:10Z</time>
      </trkpt>
      <trkpt lat="49.0613" lon="1.33035">
        <ele>70.79</ele>
        <time>2012-06-14T11:55:11Z</time>
      </trkpt>
      <trkpt lat="49.06131" lon="1.33031">
        <ele>70.79</ele>
        <time>2012-06-14T11:55:12Z</time>
      </trkpt>
      <trkpt lat="49.06132" lon="1.33027">
        <ele>71.27</ele>
        <time>2012-06-14T11:55:13Z</time>
      </trkpt>
      <trkpt lat="49.06134" lon="1.33023">
        <ele>70.79</ele>
        <time>2012-06-14T11:55:14Z</time>
      </trkpt>
      <trkpt lat="49.06135" lon="1.33019">
        <ele>71.27</ele>
        <time>2012-06-14T11:55:15Z</time>
      </trkpt>
      <trkpt lat="49.06136" lon="1.33015">
        <ele>71.27</ele>
        <time>2012-06-14T11:55:16Z</time>
      </trkpt>
      <trkpt lat="49.06138" lon="1.33011">
        <ele>71.27</ele>
        <time>2012-06-14T11:55:17Z</time>
      </trkpt>
      <trkpt lat="49.06152" lon="1.32971">
        <ele>71.76</ele>
        <time>2012-06-14T11:55:28Z</time>
      </trkpt>
      <trkpt lat="49.06157" lon="1.32957">
        <ele>71.76</ele>
        <time>2012-06-14T11:55:32Z</time>
      </trkpt>
      <trkpt lat="49.06158" lon="1.32953">
        <ele>71.27</ele>
        <time>2012-06-14T11:55:33Z</time>
      </trkpt>
      <trkpt lat="49.0616" lon="1.3295">
        <ele>72.24</ele>
        <time>2012-06-14T11:55:34Z</time>
      </trkpt>
      <trkpt lat="49.06172" lon="1.32922">
        <ele>71.76</ele>
        <time>2012-06-14T11:55:42Z</time>
      </trkpt>
      <trkpt lat="49.06186" lon="1.3289">
        <ele>71.76</ele>
        <time>2012-06-14T11:55:50Z</time>
      </trkpt>
      <trkpt lat="49.06198" lon="1.32858">
        <ele>72.24</ele>
        <time>2012-06-14T11:55:59Z</time>
      </trkpt>
      <trkpt lat="49.06205" lon="1.32836">
        <ele>72.24</ele>
        <time>2012-06-14T11:56:05Z</time>
      </trkpt>
      <trkpt lat="49.06213" lon="1.32791">
        <ele>72.24</ele>
        <time>2012-06-14T11:56:17Z</time>
      </trkpt>
      <trkpt lat="49.06228" lon="1.3274">
        <ele>73.2</ele>
        <time>2012-06-14T11:56:30Z</time>
      </trkpt>
      <trkpt lat="49.06237" lon="1.32695">
        <ele>74.64</ele>
        <time>2012-06-14T11:56:42Z</time>
      </trkpt>
      <trkpt lat="49.06249" lon="1.32646">
        <ele>75.6</ele>
        <time>2012-06-14T11:56:55Z</time>
      </trkpt>
      <trkpt lat="49.06259" lon="1.32597">
        <ele>76.56</ele>
        <time>2012-06-14T11:57:09Z</time>
      </trkpt>
      <trkpt lat="49.0627" lon="1.32554">
        <ele>77.04</ele>
        <time>2012-06-14T11:57:21Z</time>
      </trkpt>
      <trkpt lat="49.0629" lon="1.32503">
        <ele>77.04</ele>
        <time>2012-06-14T11:57:36Z</time>
      </trkpt>
      <trkpt lat="49.06312" lon="1.32443">
        <ele>77.52</ele>
        <time>2012-06-14T11:57:51Z</time>
      </trkpt>
      <trkpt lat="49.06316" lon="1.32436">
        <ele>78</ele>
        <time>2012-06-14T11:57:53Z</time>
      </trkpt>
      <trkpt lat="49.06318" lon="1.32434">
        <ele>78</ele>
        <time>2012-06-14T11:57:54Z</time>
      </trkpt>
      <trkpt lat="49.0632" lon="1.32432">
        <ele>78</ele>
        <time>2012-06-14T11:57:55Z</time>
      </trkpt>
      <trkpt lat="49.06322" lon="1.32429">
        <ele>78</ele>
        <time>2012-06-14T11:57:56Z</time>
      </trkpt>
      <trkpt lat="49.06323" lon="1.32427">
        <ele>77.52</ele>
        <time>2012-06-14T11:57:57Z</time>
      </trkpt>
      <trkpt lat="49.06324" lon="1.32424">
        <ele>77.52</ele>
        <time>2012-06-14T11:57:58Z</time>
      </trkpt>
      <trkpt lat="49.06326" lon="1.32421">
        <ele>78</ele>
        <time>2012-06-14T11:57:59Z</time>
      </trkpt>
      <trkpt lat="49.06327" lon="1.32418">
        <ele>77.52</ele>
        <time>2012-06-14T11:58:00Z</time>
      </trkpt>
      <trkpt lat="49.06329" lon="1.32415">
        <ele>78</ele>
        <time>2012-06-14T11:58:01Z</time>
      </trkpt>
      <trkpt lat="49.0633" lon="1.32412">
        <ele>78</ele>
        <time>2012-06-14T11:58:02Z</time>
      </trkpt>
      <trkpt lat="49.06331" lon="1.32409">
        <ele>78.48</ele>
        <time>2012-06-14T11:58:03Z</time>
      </trkpt>
      <trkpt lat="49.06335" lon="1.32403">
        <ele>78</ele>
        <time>2012-06-14T11:58:05Z</time>
      </trkpt>
      <trkpt lat="49.06356" lon="1.32376">
        <ele>81.37</ele>
        <time>2012-06-14T11:58:14Z</time>
      </trkpt>
      <trkpt lat="49.06361" lon="1.32372">
        <ele>81.85</ele>
        <time>2012-06-14T11:58:16Z</time>
      </trkpt>
      <trkpt lat="49.06374" lon="1.32353">
        <ele>84.25</ele>
        <time>2012-06-14T11:58:24Z</time>
      </trkpt>
      <trkpt lat="49.06386" lon="1.32299">
        <ele>87.62</ele>
        <time>2012-06-14T11:58:33Z</time>
      </trkpt>
      <trkpt lat="49.06407" lon="1.32267">
        <ele>90.98</ele>
        <time>2012-06-14T11:58:42Z</time>
      </trkpt>
      <trkpt lat="49.06414" lon="1.32256">
        <ele>92.9</ele>
        <time>2012-06-14T11:58:46Z</time>
      </trkpt>
      <trkpt lat="49.06416" lon="1.32254">
        <ele>93.39</ele>
        <time>2012-06-14T11:58:47Z</time>
      </trkpt>
      <trkpt lat="49.06419" lon="1.32252">
        <ele>94.35</ele>
        <time>2012-06-14T11:58:48Z</time>
      </trkpt>
      <trkpt lat="49.06421" lon="1.32252">
        <ele>94.83</ele>
        <time>2012-06-14T11:58:49Z</time>
      </trkpt>
      <trkpt lat="49.06424" lon="1.32253">
        <ele>94.83</ele>
        <time>2012-06-14T11:58:50Z</time>
      </trkpt>
      <trkpt lat="49.06426" lon="1.32253">
        <ele>95.79</ele>
        <time>2012-06-14T11:58:52Z</time>
      </trkpt>
      <trkpt lat="49.06426" lon="1.32254">
        <ele>96.27</ele>
        <time>2012-06-14T11:58:53Z</time>
      </trkpt>
      <trkpt lat="49.06426" lon="1.32258">
        <ele>96.27</ele>
        <time>2012-06-14T11:58:55Z</time>
      </trkpt>
      <trkpt lat="49.06425" lon="1.32265">
        <ele>96.75</ele>
        <time>2012-06-14T11:58:58Z</time>
      </trkpt>
      <trkpt lat="49.06422" lon="1.32268">
        <ele>97.71</ele>
        <time>2012-06-14T11:59:01Z</time>
      </trkpt>
      <trkpt lat="49.06421" lon="1.32275">
        <ele>99.15</ele>
        <time>2012-06-14T11:59:06Z</time>
      </trkpt>
      <trkpt lat="49.06413" lon="1.32302">
        <ele>102.04</ele>
        <time>2012-06-14T11:59:15Z</time>
      </trkpt>
      <trkpt lat="49.06413" lon="1.32304">
        <ele>102.52</ele>
        <time>2012-06-14T11:59:16Z</time>
      </trkpt>
      <trkpt lat="49.06411" lon="1.32313">
        <ele>102.52</ele>
        <time>2012-06-14T11:59:19Z</time>
      </trkpt>
      <trkpt lat="49.06409" lon="1.32326">
        <ele>103.96</ele>
        <time>2012-06-14T11:59:23Z</time>
      </trkpt>
      <trkpt lat="49.06403" lon="1.3236">
        <ele>105.88</ele>
        <time>2012-06-14T11:59:31Z</time>
      </trkpt>
      <trkpt lat="49.06399" lon="1.32383">
        <ele>106.84</ele>
        <time>2012-06-14T11:59:37Z</time>
      </trkpt>
      <trkpt lat="49.06399" lon="1.32395">
        <ele>108.77</ele>
        <time>2012-06-14T11:59:40Z</time>
      </trkpt>
      <trkpt lat="49.06399" lon="1.32403">
        <ele>109.73</ele>
        <time>2012-06-14T11:59:43Z</time>
      </trkpt>
      <trkpt lat="49.06396" lon="1.32444">
        <ele>113.09</ele>
        <time>2012-06-14T11:59:54Z</time>
      </trkpt>
      <trkpt lat="49.06395" lon="1.32451">
        <ele>113.09</ele>
        <time>2012-06-14T11:59:56Z</time>
      </trkpt>
      <trkpt lat="49.06395" lon="1.32465">
        <ele>114.53</ele>
        <time>2012-06-14T12:00:00Z</time>
      </trkpt>
      <trkpt lat="49.06394" lon="1.32474">
        <ele>115.5</ele>
        <time>2012-06-14T12:00:03Z</time>
      </trkpt>
      <trkpt lat="49.06393" lon="1.32487">
        <ele>116.46</ele>
        <time>2012-06-14T12:00:07Z</time>
      </trkpt>
      <trkpt lat="49.06392" lon="1.32496">
        <ele>117.9</ele>
        <time>2012-06-14T12:00:10Z</time>
      </trkpt>
      <trkpt lat="49.06391" lon="1.32512">
        <ele>118.86</ele>
        <time>2012-06-14T12:00:21Z</time>
      </trkpt>
      <trkpt lat="49.0639" lon="1.32514">
        <ele>118.86</ele>
        <time>2012-06-14T12:00:25Z</time>
      </trkpt>
      <trkpt lat="49.06398" lon="1.32536">
        <ele>119.82</ele>
        <time>2012-06-14T12:00:39Z</time>
      </trkpt>
      <trkpt lat="49.06403" lon="1.32529">
        <ele>119.34</ele>
        <time>2012-06-14T12:00:45Z</time>
      </trkpt>
      <trkpt lat="49.06404" lon="1.32518">
        <ele>118.86</ele>
        <time>2012-06-14T12:00:51Z</time>
      </trkpt>
      <trkpt lat="49.06411" lon="1.325">
        <ele>118.86</ele>
        <time>2012-06-14T12:00:58Z</time>
      </trkpt>
      <trkpt lat="49.06426" lon="1.32461">
        <ele>119.34</ele>
        <time>2012-06-14T12:01:11Z</time>
      </trkpt>
      <trkpt lat="49.06432" lon="1.32433">
        <ele>118.86</ele>
        <time>2012-06-14T12:01:21Z</time>
      </trkpt>
      <trkpt lat="49.06435" lon="1.32428">
        <ele>119.34</ele>
        <time>2012-06-14T12:01:23Z</time>
      </trkpt>
      <trkpt lat="49.06438" lon="1.32404">
        <ele>118.86</ele>
        <time>2012-06-14T12:01:30Z</time>
      </trkpt>
      <trkpt lat="49.06447" lon="1.32382">
        <ele>118.38</ele>
        <time>2012-06-14T12:01:36Z</time>
      </trkpt>
      <trkpt lat="49.06466" lon="1.32325">
        <ele>120.78</ele>
        <time>2012-06-14T12:01:48Z</time>
      </trkpt>
      <trkpt lat="49.06488" lon="1.32287">
        <ele>122.22</ele>
        <time>2012-06-14T12:01:58Z</time>
      </trkpt>
      <trkpt lat="49.06494" lon="1.32273">
        <ele>122.22</ele>
        <time>2012-06-14T12:02:01Z</time>
      </trkpt>
      <trkpt lat="49.06512" lon="1.32233">
        <ele>123.19</ele>
        <time>2012-06-14T12:02:10Z</time>
      </trkpt>
      <trkpt lat="49.06522" lon="1.32218">
        <ele>124.15</ele>
        <time>2012-06-14T12:02:15Z</time>
      </trkpt>
      <trkpt lat="49.06549" lon="1.32181">
        <ele>125.59</ele>
        <time>2012-06-14T12:02:28Z</time>
      </trkpt>
      <trkpt lat="49.0657" lon="1.3216">
        <ele>125.59</ele>
        <time>2012-06-14T12:02:39Z</time>
      </trkpt>
      <trkpt lat="49.06578" lon="1.32153">
        <ele>125.11</ele>
        <time>2012-06-14T12:02:43Z</time>
      </trkpt>
      <trkpt lat="49.06615" lon="1.32124">
        <ele>123.19</ele>
        <time>2012-06-14T12:02:57Z</time>
      </trkpt>
      <trkpt lat="49.06645" lon="1.32105">
        <ele>125.11</ele>
        <time>2012-06-14T12:03:10Z</time>
      </trkpt>
      <trkpt lat="49.06647" lon="1.32104">
        <ele>125.11</ele>
        <time>2012-06-14T12:03:11Z</time>
      </trkpt>
      <trkpt lat="49.06674" lon="1.32092">
        <ele>126.07</ele>
        <time>2012-06-14T12:03:19Z</time>
      </trkpt>
      <trkpt lat="49.06692" lon="1.3209">
        <ele>127.99</ele>
        <time>2012-06-14T12:03:26Z</time>
      </trkpt>
      <trkpt lat="49.06697" lon="1.321">
        <ele>129.43</ele>
        <time>2012-06-14T12:03:30Z</time>
      </trkpt>
      <trkpt lat="49.067" lon="1.321">
        <ele>128.95</ele>
        <time>2012-06-14T12:03:32Z</time>
      </trkpt>
      <trkpt lat="49.06738" lon="1.32085">
        <ele>127.51</ele>
        <time>2012-06-14T12:03:46Z</time>
      </trkpt>
      <trkpt lat="49.06757" lon="1.32078">
        <ele>127.99</ele>
        <time>2012-06-14T12:03:58Z</time>
      </trkpt>
      <trkpt lat="49.06775" lon="1.32079">
        <ele>127.51</ele>
        <time>2012-06-14T12:04:12Z</time>
      </trkpt>
      <trkpt lat="49.06797" lon="1.32081">
        <ele>127.51</ele>
        <time>2012-06-14T12:04:25Z</time>
      </trkpt>
      <trkpt lat="49.06812" lon="1.32079">
        <ele>127.03</ele>
        <time>2012-06-14T12:04:37Z</time>
      </trkpt>
      <trkpt lat="49.06817" lon="1.32078">
        <ele>127.03</ele>
        <time>2012-06-14T12:04:40Z</time>
      </trkpt>
      <trkpt lat="49.06846" lon="1.32066">
        <ele>127.51</ele>
        <time>2012-06-14T12:04:59Z</time>
      </trkpt>
      <trkpt lat="49.06863" lon="1.32053">
        <ele>127.99</ele>
        <time>2012-06-14T12:05:13Z</time>
      </trkpt>
      <trkpt lat="49.06865" lon="1.32053">
        <ele>127.99</ele>
        <time>2012-06-14T12:05:14Z</time>
      </trkpt>
      <trkpt lat="49.06886" lon="1.32045">
        <ele>127.03</ele>
        <time>2012-06-14T12:05:31Z</time>
      </trkpt>
      <trkpt lat="49.06905" lon="1.32044">
        <ele>127.03</ele>
        <time>2012-06-14T12:05:45Z</time>
      </trkpt>
      <trkpt lat="49.06922" lon="1.32056">
        <ele>127.51</ele>
        <time>2012-06-14T12:06:01Z</time>
      </trkpt>
      <trkpt lat="49.06936" lon="1.32075">
        <ele>128.95</ele>
        <time>2012-06-14T12:06:14Z</time>
      </trkpt>
      <trkpt lat="49.06941" lon="1.32083">
        <ele>128.47</ele>
        <time>2012-06-14T12:06:20Z</time>
      </trkpt>
      <trkpt lat="49.06953" lon="1.32108">
        <ele>128.95</ele>
        <time>2012-06-14T12:06:35Z</time>
      </trkpt>
      <trkpt lat="49.06966" lon="1.32136">
        <ele>129.43</ele>
        <time>2012-06-14T12:06:51Z</time>
      </trkpt>
      <trkpt lat="49.0698" lon="1.32161">
        <ele>129.43</ele>
        <time>2012-06-14T12:07:06Z</time>
      </trkpt>
      <trkpt lat="49.06991" lon="1.32182">
        <ele>128.95</ele>
        <time>2012-06-14T12:07:19Z</time>
      </trkpt>
      <trkpt lat="49.07004" lon="1.32209">
        <ele>128.47</ele>
        <time>2012-06-14T12:07:28Z</time>
      </trkpt>
      <trkpt lat="49.07021" lon="1.32238">
        <ele>127.51</ele>
        <time>2012-06-14T12:07:37Z</time>
      </trkpt>
      <trkpt lat="49.07043" lon="1.32277">
        <ele>126.55</ele>
        <time>2012-06-14T12:07:49Z</time>
      </trkpt>
      <trkpt lat="49.07054" lon="1.32316">
        <ele>125.59</ele>
        <time>2012-06-14T12:07:59Z</time>
      </trkpt>
      <trkpt lat="49.0705" lon="1.32337">
        <ele>127.03</ele>
        <time>2012-06-14T12:08:04Z</time>
      </trkpt>
      <trkpt lat="49.07036" lon="1.32375">
        <ele>127.51</ele>
        <time>2012-06-14T12:08:15Z</time>
      </trkpt>
      <trkpt lat="49.0702" lon="1.32413">
        <ele>130.4</ele>
        <time>2012-06-14T12:08:26Z</time>
      </trkpt>
      <trkpt lat="49.07002" lon="1.32456">
        <ele>131.36</ele>
        <time>2012-06-14T12:08:38Z</time>
      </trkpt>
      <trkpt lat="49.0699" lon="1.32485">
        <ele>133.28</ele>
        <time>2012-06-14T12:08:47Z</time>
      </trkpt>
      <trkpt lat="49.06983" lon="1.32508">
        <ele>134.24</ele>
        <time>2012-06-14T12:08:54Z</time>
      </trkpt>
      <trkpt lat="49.06977" lon="1.32528">
        <ele>134.72</ele>
        <time>2012-06-14T12:09:00Z</time>
      </trkpt>
      <trkpt lat="49.06961" lon="1.32582">
        <ele>136.64</ele>
        <time>2012-06-14T12:09:14Z</time>
      </trkpt>
      <trkpt lat="49.06951" lon="1.32623">
        <ele>136.64</ele>
        <time>2012-06-14T12:09:24Z</time>
      </trkpt>
      <trkpt lat="49.06946" lon="1.32669">
        <ele>138.09</ele>
        <time>2012-06-14T12:09:34Z</time>
      </trkpt>
      <trkpt lat="49.06945" lon="1.32684">
        <ele>137.61</ele>
        <time>2012-06-14T12:09:38Z</time>
      </trkpt>
      <trkpt lat="49.06954" lon="1.32691">
        <ele>136.64</ele>
        <time>2012-06-14T12:09:43Z</time>
      </trkpt>
      <trkpt lat="49.0699" lon="1.3267">
        <ele>135.68</ele>
        <time>2012-06-14T12:09:56Z</time>
      </trkpt>
      <trkpt lat="49.07026" lon="1.32646">
        <ele>133.28</ele>
        <time>2012-06-14T12:10:09Z</time>
      </trkpt>
      <trkpt lat="49.07055" lon="1.32628">
        <ele>130.88</ele>
        <time>2012-06-14T12:10:19Z</time>
      </trkpt>
      <trkpt lat="49.0708" lon="1.32611">
        <ele>128.95</ele>
        <time>2012-06-14T12:10:28Z</time>
      </trkpt>
      <trkpt lat="49.07095" lon="1.32607">
        <ele>127.51</ele>
        <time>2012-06-14T12:10:33Z</time>
      </trkpt>
      <trkpt lat="49.07104" lon="1.3262">
        <ele>127.03</ele>
        <time>2012-06-14T12:10:37Z</time>
      </trkpt>
      <trkpt lat="49.07125" lon="1.32667">
        <ele>128.95</ele>
        <time>2012-06-14T12:10:50Z</time>
      </trkpt>
      <trkpt lat="49.07126" lon="1.32671">
        <ele>128.95</ele>
        <time>2012-06-14T12:10:51Z</time>
      </trkpt>
      <trkpt lat="49.07143" lon="1.32712">
        <ele>129.92</ele>
        <time>2012-06-14T12:11:02Z</time>
      </trkpt>
      <trkpt lat="49.07147" lon="1.32719">
        <ele>130.4</ele>
        <time>2012-06-14T12:11:04Z</time>
      </trkpt>
      <trkpt lat="49.07162" lon="1.32758">
        <ele>132.32</ele>
        <time>2012-06-14T12:11:15Z</time>
      </trkpt>
      <trkpt lat="49.07174" lon="1.32793">
        <ele>133.28</ele>
        <time>2012-06-14T12:11:25Z</time>
      </trkpt>
      <trkpt lat="49.07188" lon="1.32826">
        <ele>133.28</ele>
        <time>2012-06-14T12:11:34Z</time>
      </trkpt>
      <trkpt lat="49.07203" lon="1.32863">
        <ele>132.8</ele>
        <time>2012-06-14T12:11:44Z</time>
      </trkpt>
      <trkpt lat="49.07215" lon="1.32911">
        <ele>134.24</ele>
        <time>2012-06-14T12:11:56Z</time>
      </trkpt>
      <trkpt lat="49.07232" lon="1.32955">
        <ele>134.24</ele>
        <time>2012-06-14T12:12:08Z</time>
      </trkpt>
      <trkpt lat="49.0725" lon="1.32986">
        <ele>134.24</ele>
        <time>2012-06-14T12:12:18Z</time>
      </trkpt>
      <trkpt lat="49.07262" lon="1.33012">
        <ele>133.76</ele>
        <time>2012-06-14T12:12:25Z</time>
      </trkpt>
      <trkpt lat="49.07267" lon="1.33027">
        <ele>133.28</ele>
        <time>2012-06-14T12:12:29Z</time>
      </trkpt>
      <trkpt lat="49.07279" lon="1.33068">
        <ele>133.76</ele>
        <time>2012-06-14T12:12:40Z</time>
      </trkpt>
      <trkpt lat="49.07289" lon="1.33108">
        <ele>133.76</ele>
        <time>2012-06-14T12:12:50Z</time>
      </trkpt>
      <trkpt lat="49.07296" lon="1.33152">
        <ele>133.76</ele>
        <time>2012-06-14T12:13:00Z</time>
      </trkpt>
      <trkpt lat="49.07304" lon="1.33191">
        <ele>131.84</ele>
        <time>2012-06-14T12:13:10Z</time>
      </trkpt>
      <trkpt lat="49.07319" lon="1.33235">
        <ele>130.88</ele>
        <time>2012-06-14T12:13:21Z</time>
      </trkpt>
      <trkpt lat="49.07334" lon="1.33274">
        <ele>131.36</ele>
        <time>2012-06-14T12:13:31Z</time>
      </trkpt>
      <trkpt lat="49.07356" lon="1.33317">
        <ele>130.4</ele>
        <time>2012-06-14T12:13:42Z</time>
      </trkpt>
      <trkpt lat="49.07372" lon="1.3335">
        <ele>129.43</ele>
        <time>2012-06-14T12:13:51Z</time>
      </trkpt>
      <trkpt lat="49.07391" lon="1.33395">
        <ele>128.95</ele>
        <time>2012-06-14T12:14:02Z</time>
      </trkpt>
      <trkpt lat="49.07409" lon="1.33435">
        <ele>128.95</ele>
        <time>2012-06-14T12:14:13Z</time>
      </trkpt>
      <trkpt lat="49.07428" lon="1.33475">
        <ele>128.95</ele>
        <time>2012-06-14T12:14:24Z</time>
      </trkpt>
      <trkpt lat="49.07438" lon="1.33502">
        <ele>127.99</ele>
        <time>2012-06-14T12:14:32Z</time>
      </trkpt>
      <trkpt lat="49.07454" lon="1.33538">
        <ele>127.99</ele>
        <time>2012-06-14T12:14:42Z</time>
      </trkpt>
      <trkpt lat="49.0747" lon="1.33579">
        <ele>127.99</ele>
        <time>2012-06-14T12:14:53Z</time>
      </trkpt>
      <trkpt lat="49.07473" lon="1.33621">
        <ele>128.47</ele>
        <time>2012-06-14T12:15:03Z</time>
      </trkpt>
      <trkpt lat="49.0747" lon="1.33658">
        <ele>127.99</ele>
        <time>2012-06-14T12:15:12Z</time>
      </trkpt>
      <trkpt lat="49.07465" lon="1.33692">
        <ele>128.47</ele>
        <time>2012-06-14T12:15:21Z</time>
      </trkpt>
      <trkpt lat="49.07462" lon="1.33706">
        <ele>128.47</ele>
        <time>2012-06-14T12:15:25Z</time>
      </trkpt>
      <trkpt lat="49.07457" lon="1.33729">
        <ele>127.03</ele>
        <time>2012-06-14T12:15:32Z</time>
      </trkpt>
      <trkpt lat="49.07451" lon="1.33782">
        <ele>125.59</ele>
        <time>2012-06-14T12:15:44Z</time>
      </trkpt>
      <trkpt lat="49.0745" lon="1.33794">
        <ele>124.15</ele>
        <time>2012-06-14T12:15:47Z</time>
      </trkpt>
      <trkpt lat="49.07466" lon="1.33821">
        <ele>123.19</ele>
        <time>2012-06-14T12:15:55Z</time>
      </trkpt>
      <trkpt lat="49.07489" lon="1.33848">
        <ele>120.78</ele>
        <time>2012-06-14T12:16:03Z</time>
      </trkpt>
      <trkpt lat="49.07492" lon="1.33851">
        <ele>120.3</ele>
        <time>2012-06-14T12:16:04Z</time>
      </trkpt>
      <trkpt lat="49.07513" lon="1.33867">
        <ele>117.42</ele>
        <time>2012-06-14T12:16:10Z</time>
      </trkpt>
      <trkpt lat="49.07553" lon="1.33891">
        <ele>115.01</ele>
        <time>2012-06-14T12:16:21Z</time>
      </trkpt>
      <trkpt lat="49.07579" lon="1.33924">
        <ele>111.17</ele>
        <time>2012-06-14T12:16:30Z</time>
      </trkpt>
      <trkpt lat="49.07589" lon="1.33971">
        <ele>108.77</ele>
        <time>2012-06-14T12:16:40Z</time>
      </trkpt>
      <trkpt lat="49.0761" lon="1.33999">
        <ele>106.36</ele>
        <time>2012-06-14T12:16:50Z</time>
      </trkpt>
      <trkpt lat="49.07637" lon="1.34026">
        <ele>103.96</ele>
        <time>2012-06-14T12:17:01Z</time>
      </trkpt>
      <trkpt lat="49.07644" lon="1.34037">
        <ele>103.96</ele>
        <time>2012-06-14T12:17:05Z</time>
      </trkpt>
      <trkpt lat="49.07673" lon="1.34069">
        <ele>102.04</ele>
        <time>2012-06-14T12:17:17Z</time>
      </trkpt>
      <trkpt lat="49.07697" lon="1.34097">
        <ele>102.04</ele>
        <time>2012-06-14T12:17:28Z</time>
      </trkpt>
      <trkpt lat="49.07699" lon="1.34099">
        <ele>101.56</ele>
        <time>2012-06-14T12:17:29Z</time>
      </trkpt>
      <trkpt lat="49.07702" lon="1.341">
        <ele>101.56</ele>
        <time>2012-06-14T12:17:30Z</time>
      </trkpt>
      <trkpt lat="49.07738" lon="1.34099">
        <ele>100.6</ele>
        <time>2012-06-14T12:17:42Z</time>
      </trkpt>
      <trkpt lat="49.07768" lon="1.34079">
        <ele>99.63</ele>
        <time>2012-06-14T12:17:53Z</time>
      </trkpt>
      <trkpt lat="49.07793" lon="1.3406">
        <ele>98.19</ele>
        <time>2012-06-14T12:18:03Z</time>
      </trkpt>
      <trkpt lat="49.07821" lon="1.34047">
        <ele>95.31</ele>
        <time>2012-06-14T12:18:13Z</time>
      </trkpt>
      <trkpt lat="49.07848" lon="1.3404">
        <ele>92.42</ele>
        <time>2012-06-14T12:18:22Z</time>
      </trkpt>
      <trkpt lat="49.07878" lon="1.34045">
        <ele>89.06</ele>
        <time>2012-06-14T12:18:32Z</time>
      </trkpt>
      <trkpt lat="49.07904" lon="1.34058">
        <ele>86.66</ele>
        <time>2012-06-14T12:18:41Z</time>
      </trkpt>
      <trkpt lat="49.07918" lon="1.34069">
        <ele>84.73</ele>
        <time>2012-06-14T12:18:46Z</time>
      </trkpt>
      <trkpt lat="49.07935" lon="1.34087">
        <ele>81.85</ele>
        <time>2012-06-14T12:18:53Z</time>
      </trkpt>
      <trkpt lat="49.07952" lon="1.34114">
        <ele>79.45</ele>
        <time>2012-06-14T12:19:01Z</time>
      </trkpt>
      <trkpt lat="49.0797" lon="1.34138">
        <ele>78</ele>
        <time>2012-06-14T12:19:10Z</time>
      </trkpt>
      <trkpt lat="49.07988" lon="1.34163">
        <ele>77.52</ele>
        <time>2012-06-14T12:19:19Z</time>
      </trkpt>
      <trkpt lat="49.08001" lon="1.34179">
        <ele>78.97</ele>
        <time>2012-06-14T12:19:25Z</time>
      </trkpt>
      <trkpt lat="49.08002" lon="1.34182">
        <ele>78.97</ele>
        <time>2012-06-14T12:19:26Z</time>
      </trkpt>
      <trkpt lat="49.08002" lon="1.34186">
        <ele>78.97</ele>
        <time>2012-06-14T12:19:27Z</time>
      </trkpt>
      <trkpt lat="49.08002" lon="1.3419">
        <ele>78.97</ele>
        <time>2012-06-14T12:19:28Z</time>
      </trkpt>
      <trkpt lat="49.08002" lon="1.34194">
        <ele>79.45</ele>
        <time>2012-06-14T12:19:29Z</time>
      </trkpt>
      <trkpt lat="49.08003" lon="1.34198">
        <ele>79.45</ele>
        <time>2012-06-14T12:19:30Z</time>
      </trkpt>
      <trkpt lat="49.08004" lon="1.34201">
        <ele>79.93</ele>
        <time>2012-06-14T12:19:31Z</time>
      </trkpt>
      <trkpt lat="49.08004" lon="1.34205">
        <ele>79.93</ele>
        <time>2012-06-14T12:19:32Z</time>
      </trkpt>
      <trkpt lat="49.08004" lon="1.34208">
        <ele>80.41</ele>
        <time>2012-06-14T12:19:33Z</time>
      </trkpt>
      <trkpt lat="49.08003" lon="1.34245">
        <ele>82.33</ele>
        <time>2012-06-14T12:19:44Z</time>
      </trkpt>
      <trkpt lat="49.08016" lon="1.34281">
        <ele>84.73</ele>
        <time>2012-06-14T12:19:57Z</time>
      </trkpt>
      <trkpt lat="49.08044" lon="1.34311">
        <ele>87.62</ele>
        <time>2012-06-14T12:20:09Z</time>
      </trkpt>
      <trkpt lat="49.0806" lon="1.3432">
        <ele>88.58</ele>
        <time>2012-06-14T12:20:17Z</time>
      </trkpt>
      <trkpt lat="49.08066" lon="1.34324">
        <ele>89.06</ele>
        <time>2012-06-14T12:20:20Z</time>
      </trkpt>
      <trkpt lat="49.08069" lon="1.34325">
        <ele>89.54</ele>
        <time>2012-06-14T12:20:21Z</time>
      </trkpt>
      <trkpt lat="49.08071" lon="1.34326">
        <ele>90.02</ele>
        <time>2012-06-14T12:20:22Z</time>
      </trkpt>
      <trkpt lat="49.08092" lon="1.34327">
        <ele>91.94</ele>
        <time>2012-06-14T12:20:32Z</time>
      </trkpt>
      <trkpt lat="49.08094" lon="1.34327">
        <ele>91.94</ele>
        <time>2012-06-14T12:20:33Z</time>
      </trkpt>
      <trkpt lat="49.08097" lon="1.34327">
        <ele>92.42</ele>
        <time>2012-06-14T12:20:34Z</time>
      </trkpt>
      <trkpt lat="49.081" lon="1.34327">
        <ele>92.42</ele>
        <time>2012-06-14T12:20:35Z</time>
      </trkpt>
      <trkpt lat="49.08103" lon="1.34327">
        <ele>92.9</ele>
        <time>2012-06-14T12:20:36Z</time>
      </trkpt>
      <trkpt lat="49.08127" lon="1.3433">
        <ele>95.79</ele>
        <time>2012-06-14T12:20:50Z</time>
      </trkpt>
      <trkpt lat="49.08128" lon="1.34331">
        <ele>95.79</ele>
        <time>2012-06-14T12:20:51Z</time>
      </trkpt>
      <trkpt lat="49.0813" lon="1.34331">
        <ele>96.27</ele>
        <time>2012-06-14T12:20:52Z</time>
      </trkpt>
      <trkpt lat="49.08132" lon="1.34333">
        <ele>96.27</ele>
        <time>2012-06-14T12:20:54Z</time>
      </trkpt>
      <trkpt lat="49.08134" lon="1.34334">
        <ele>96.27</ele>
        <time>2012-06-14T12:20:55Z</time>
      </trkpt>
      <trkpt lat="49.08136" lon="1.34335">
        <ele>96.75</ele>
        <time>2012-06-14T12:20:56Z</time>
      </trkpt>
      <trkpt lat="49.08183" lon="1.3434">
        <ele>98.67</ele>
        <time>2012-06-14T12:21:10Z</time>
      </trkpt>
      <trkpt lat="49.08199" lon="1.34342">
        <ele>99.63</ele>
        <time>2012-06-14T12:21:18Z</time>
      </trkpt>
      <trkpt lat="49.08202" lon="1.34342">
        <ele>99.63</ele>
        <time>2012-06-14T12:21:19Z</time>
      </trkpt>
      <trkpt lat="49.08224" lon="1.34351">
        <ele>102.04</ele>
        <time>2012-06-14T12:21:30Z</time>
      </trkpt>
      <trkpt lat="49.08252" lon="1.34363">
        <ele>103.96</ele>
        <time>2012-06-14T12:21:41Z</time>
      </trkpt>
      <trkpt lat="49.08268" lon="1.34383">
        <ele>107.32</ele>
        <time>2012-06-14T12:21:52Z</time>
      </trkpt>
      <trkpt lat="49.08286" lon="1.34411">
        <ele>110.21</ele>
        <time>2012-06-14T12:22:04Z</time>
      </trkpt>
      <trkpt lat="49.08288" lon="1.34419">
        <ele>111.17</ele>
        <time>2012-06-14T12:22:07Z</time>
      </trkpt>
      <trkpt lat="49.08295" lon="1.34459">
        <ele>113.57</ele>
        <time>2012-06-14T12:22:21Z</time>
      </trkpt>
      <trkpt lat="49.08297" lon="1.34468">
        <ele>114.05</ele>
        <time>2012-06-14T12:22:37Z</time>
      </trkpt>
      <trkpt lat="49.08297" lon="1.34467">
        <ele>115.01</ele>
        <time>2012-06-14T12:22:46Z</time>
      </trkpt>
      <trkpt lat="49.08301" lon="1.34488">
        <ele>116.46</ele>
        <time>2012-06-14T12:22:58Z</time>
      </trkpt>
      <trkpt lat="49.08309" lon="1.34506">
        <ele>119.34</ele>
        <time>2012-06-14T12:23:14Z</time>
      </trkpt>
      <trkpt lat="49.0832" lon="1.34526">
        <ele>121.74</ele>
        <time>2012-06-14T12:23:28Z</time>
      </trkpt>
      <trkpt lat="49.08321" lon="1.34529">
        <ele>122.22</ele>
        <time>2012-06-14T12:23:30Z</time>
      </trkpt>
      <trkpt lat="49.08336" lon="1.34557">
        <ele>123.67</ele>
        <time>2012-06-14T12:23:45Z</time>
      </trkpt>
      <trkpt lat="49.08342" lon="1.34568">
        <ele>125.11</ele>
        <time>2012-06-14T12:23:58Z</time>
      </trkpt>
      <trkpt lat="49.08344" lon="1.3458">
        <ele>125.59</ele>
        <time>2012-06-14T12:24:12Z</time>
      </trkpt>
      <trkpt lat="49.08341" lon="1.34586">
        <ele>125.59</ele>
        <time>2012-06-14T12:24:26Z</time>
      </trkpt>
      <trkpt lat="49.08341" lon="1.34589">
        <ele>126.55</ele>
        <time>2012-06-14T12:24:39Z</time>
      </trkpt>
      <trkpt lat="49.08326" lon="1.34589">
        <ele>129.43</ele>
        <time>2012-06-14T12:24:52Z</time>
      </trkpt>
      <trkpt lat="49.08316" lon="1.3459">
        <ele>132.32</ele>
        <time>2012-06-14T12:25:07Z</time>
      </trkpt>
      <trkpt lat="49.08296" lon="1.34589">
        <ele>134.24</ele>
        <time>2012-06-14T12:25:21Z</time>
      </trkpt>
      <trkpt lat="49.08292" lon="1.34587">
        <ele>134.72</ele>
        <time>2012-06-14T12:25:25Z</time>
      </trkpt>
      <trkpt lat="49.08288" lon="1.34584">
        <ele>135.2</ele>
        <time>2012-06-14T12:25:28Z</time>
      </trkpt>
      <trkpt lat="49.08277" lon="1.34575">
        <ele>137.13</ele>
        <time>2012-06-14T12:25:44Z</time>
      </trkpt>
      <trkpt lat="49.08272" lon="1.34575">
        <ele>137.61</ele>
        <time>2012-06-14T12:25:47Z</time>
      </trkpt>
      <trkpt lat="49.08247" lon="1.34564">
        <ele>138.57</ele>
        <time>2012-06-14T12:26:03Z</time>
      </trkpt>
      <trkpt lat="49.08227" lon="1.34562">
        <ele>140.49</ele>
        <time>2012-06-14T12:26:18Z</time>
      </trkpt>
      <trkpt lat="49.08203" lon="1.34564">
        <ele>141.45</ele>
        <time>2012-06-14T12:26:34Z</time>
      </trkpt>
      <trkpt lat="49.08185" lon="1.34579">
        <ele>141.93</ele>
        <time>2012-06-14T12:26:49Z</time>
      </trkpt>
      <trkpt lat="49.08175" lon="1.34593">
        <ele>142.41</ele>
        <time>2012-06-14T12:27:04Z</time>
      </trkpt>
      <trkpt lat="49.08157" lon="1.34611">
        <ele>142.89</ele>
        <time>2012-06-14T12:27:19Z</time>
      </trkpt>
      <trkpt lat="49.08148" lon="1.34613">
        <ele>143.85</ele>
        <time>2012-06-14T12:27:35Z</time>
      </trkpt>
      <trkpt lat="49.08129" lon="1.34621">
        <ele>144.82</ele>
        <time>2012-06-14T12:27:51Z</time>
      </trkpt>
      <trkpt lat="49.08102" lon="1.34643">
        <ele>146.26</ele>
        <time>2012-06-14T12:28:07Z</time>
      </trkpt>
      <trkpt lat="49.08093" lon="1.34649">
        <ele>146.74</ele>
        <time>2012-06-14T12:28:17Z</time>
      </trkpt>
      <trkpt lat="49.08078" lon="1.34657">
        <ele>147.7</ele>
        <time>2012-06-14T12:28:31Z</time>
      </trkpt>
      <trkpt lat="49.08059" lon="1.34673">
        <ele>148.18</ele>
        <time>2012-06-14T12:28:47Z</time>
      </trkpt>
      <trkpt lat="49.08054" lon="1.34674">
        <ele>147.7</ele>
        <time>2012-06-14T12:28:51Z</time>
      </trkpt>
      <trkpt lat="49.08039" lon="1.34675">
        <ele>148.66</ele>
        <time>2012-06-14T12:28:59Z</time>
      </trkpt>
      <trkpt lat="49.08018" lon="1.34652">
        <ele>148.66</ele>
        <time>2012-06-14T12:29:10Z</time>
      </trkpt>
      <trkpt lat="49.08004" lon="1.3464">
        <ele>148.66</ele>
        <time>2012-06-14T12:29:16Z</time>
      </trkpt>
      <trkpt lat="49.07974" lon="1.34645">
        <ele>150.1</ele>
        <time>2012-06-14T12:29:26Z</time>
      </trkpt>
      <trkpt lat="49.07955" lon="1.34656">
        <ele>150.1</ele>
        <time>2012-06-14T12:29:35Z</time>
      </trkpt>
      <trkpt lat="49.07927" lon="1.34677">
        <ele>151.06</ele>
        <time>2012-06-14T12:29:44Z</time>
      </trkpt>
      <trkpt lat="49.07908" lon="1.34678">
        <ele>151.54</ele>
        <time>2012-06-14T12:29:56Z</time>
      </trkpt>
      <trkpt lat="49.07891" lon="1.34683">
        <ele>151.06</ele>
        <time>2012-06-14T12:30:02Z</time>
      </trkpt>
      <trkpt lat="49.07859" lon="1.34719">
        <ele>151.54</ele>
        <time>2012-06-14T12:30:13Z</time>
      </trkpt>
      <trkpt lat="49.0783" lon="1.34749">
        <ele>152.51</ele>
        <time>2012-06-14T12:30:26Z</time>
      </trkpt>
      <trkpt lat="49.07809" lon="1.34758">
        <ele>152.03</ele>
        <time>2012-06-14T12:30:36Z</time>
      </trkpt>
      <trkpt lat="49.07792" lon="1.34776">
        <ele>152.03</ele>
        <time>2012-06-14T12:30:49Z</time>
      </trkpt>
      <trkpt lat="49.07773" lon="1.3477">
        <ele>152.51</ele>
        <time>2012-06-14T12:30:55Z</time>
      </trkpt>
      <trkpt lat="49.07738" lon="1.34781">
        <ele>152.03</ele>
        <time>2012-06-14T12:31:07Z</time>
      </trkpt>
      <trkpt lat="49.07698" lon="1.34754">
        <ele>152.03</ele>
        <time>2012-06-14T12:31:21Z</time>
      </trkpt>
      <trkpt lat="49.07692" lon="1.34756">
        <ele>152.03</ele>
        <time>2012-06-14T12:31:30Z</time>
      </trkpt>
      <trkpt lat="49.07632" lon="1.348">
        <ele>151.06</ele>
        <time>2012-06-14T12:31:46Z</time>
      </trkpt>
      <trkpt lat="49.07612" lon="1.34819">
        <ele>151.06</ele>
        <time>2012-06-14T12:31:54Z</time>
      </trkpt>
      <trkpt lat="49.07584" lon="1.34849">
        <ele>150.58</ele>
        <time>2012-06-14T12:32:02Z</time>
      </trkpt>
      <trkpt lat="49.07551" lon="1.34883">
        <ele>150.1</ele>
        <time>2012-06-14T12:32:14Z</time>
      </trkpt>
      <trkpt lat="49.07544" lon="1.34887">
        <ele>149.62</ele>
        <time>2012-06-14T12:32:19Z</time>
      </trkpt>
      <trkpt lat="49.07544" lon="1.34892">
        <ele>149.62</ele>
        <time>2012-06-14T12:32:24Z</time>
      </trkpt>
      <trkpt lat="49.07536" lon="1.34867">
        <ele>149.14</ele>
        <time>2012-06-14T12:32:33Z</time>
      </trkpt>
      <trkpt lat="49.07498" lon="1.34869">
        <ele>149.14</ele>
        <time>2012-06-14T12:32:44Z</time>
      </trkpt>
      <trkpt lat="49.07476" lon="1.34884">
        <ele>148.66</ele>
        <time>2012-06-14T12:32:52Z</time>
      </trkpt>
      <trkpt lat="49.07445" lon="1.34902">
        <ele>148.18</ele>
        <time>2012-06-14T12:33:06Z</time>
      </trkpt>
      <trkpt lat="49.0742" lon="1.34916">
        <ele>147.22</ele>
        <time>2012-06-14T12:33:19Z</time>
      </trkpt>
      <trkpt lat="49.07392" lon="1.34931">
        <ele>146.26</ele>
        <time>2012-06-14T12:33:32Z</time>
      </trkpt>
      <trkpt lat="49.07387" lon="1.34934">
        <ele>145.78</ele>
        <time>2012-06-14T12:33:34Z</time>
      </trkpt>
      <trkpt lat="49.07343" lon="1.34985">
        <ele>144.82</ele>
        <time>2012-06-14T12:33:46Z</time>
      </trkpt>
      <trkpt lat="49.0734" lon="1.35025">
        <ele>143.85</ele>
        <time>2012-06-14T12:33:53Z</time>
      </trkpt>
      <trkpt lat="49.07346" lon="1.35079">
        <ele>144.34</ele>
        <time>2012-06-14T12:34:05Z</time>
      </trkpt>
      <trkpt lat="49.0735" lon="1.35119">
        <ele>143.85</ele>
        <time>2012-06-14T12:34:14Z</time>
      </trkpt>
      <trkpt lat="49.07351" lon="1.35161">
        <ele>143.85</ele>
        <time>2012-06-14T12:34:22Z</time>
      </trkpt>
      <trkpt lat="49.07358" lon="1.35208">
        <ele>144.82</ele>
        <time>2012-06-14T12:34:32Z</time>
      </trkpt>
      <trkpt lat="49.07372" lon="1.35255">
        <ele>145.78</ele>
        <time>2012-06-14T12:34:43Z</time>
      </trkpt>
      <trkpt lat="49.0739" lon="1.35305">
        <ele>146.26</ele>
        <time>2012-06-14T12:34:55Z</time>
      </trkpt>
      <trkpt lat="49.07408" lon="1.35357">
        <ele>146.74</ele>
        <time>2012-06-14T12:35:08Z</time>
      </trkpt>
      <trkpt lat="49.07422" lon="1.35397">
        <ele>147.22</ele>
        <time>2012-06-14T12:35:18Z</time>
      </trkpt>
      <trkpt lat="49.07437" lon="1.35436">
        <ele>146.74</ele>
        <time>2012-06-14T12:35:28Z</time>
      </trkpt>
      <trkpt lat="49.07454" lon="1.35478">
        <ele>145.78</ele>
        <time>2012-06-14T12:35:39Z</time>
      </trkpt>
      <trkpt lat="49.07465" lon="1.35516">
        <ele>145.3</ele>
        <time>2012-06-14T12:35:49Z</time>
      </trkpt>
      <trkpt lat="49.07468" lon="1.35558">
        <ele>145.3</ele>
        <time>2012-06-14T12:36:00Z</time>
      </trkpt>
      <trkpt lat="49.0747" lon="1.35575">
        <ele>145.3</ele>
        <time>2012-06-14T12:36:05Z</time>
      </trkpt>
      <trkpt lat="49.07473" lon="1.356">
        <ele>145.3</ele>
        <time>2012-06-14T12:36:14Z</time>
      </trkpt>
      <trkpt lat="49.07474" lon="1.35619">
        <ele>144.34</ele>
        <time>2012-06-14T12:36:22Z</time>
      </trkpt>
      <trkpt lat="49.07481" lon="1.35643">
        <ele>144.82</ele>
        <time>2012-06-14T12:36:31Z</time>
      </trkpt>
      <trkpt lat="49.07492" lon="1.3566">
        <ele>144.82</ele>
        <time>2012-06-14T12:36:38Z</time>
      </trkpt>
      <trkpt lat="49.07496" lon="1.35667">
        <ele>144.34</ele>
        <time>2012-06-14T12:36:41Z</time>
      </trkpt>
      <trkpt lat="49.075" lon="1.35676">
        <ele>144.34</ele>
        <time>2012-06-14T12:36:44Z</time>
      </trkpt>
      <trkpt lat="49.07503" lon="1.35685">
        <ele>144.34</ele>
        <time>2012-06-14T12:36:48Z</time>
      </trkpt>
      <trkpt lat="49.07505" lon="1.3569">
        <ele>144.34</ele>
        <time>2012-06-14T12:36:50Z</time>
      </trkpt>
      <trkpt lat="49.07517" lon="1.35716">
        <ele>144.34</ele>
        <time>2012-06-14T12:37:00Z</time>
      </trkpt>
      <trkpt lat="49.07518" lon="1.35722">
        <ele>143.37</ele>
        <time>2012-06-14T12:37:02Z</time>
      </trkpt>
      <trkpt lat="49.0754" lon="1.35762">
        <ele>141.45</ele>
        <time>2012-06-14T12:37:13Z</time>
      </trkpt>
      <trkpt lat="49.07549" lon="1.35779">
        <ele>141.45</ele>
        <time>2012-06-14T12:37:18Z</time>
      </trkpt>
      <trkpt lat="49.0756" lon="1.35807">
        <ele>141.93</ele>
        <time>2012-06-14T12:37:26Z</time>
      </trkpt>
      <trkpt lat="49.07575" lon="1.35832">
        <ele>142.41</ele>
        <time>2012-06-14T12:37:35Z</time>
      </trkpt>
      <trkpt lat="49.07579" lon="1.35851">
        <ele>143.37</ele>
        <time>2012-06-14T12:37:40Z</time>
      </trkpt>
      <trkpt lat="49.07578" lon="1.35856">
        <ele>143.85</ele>
        <time>2012-06-14T12:37:42Z</time>
      </trkpt>
      <trkpt lat="49.0757" lon="1.35871">
        <ele>144.34</ele>
        <time>2012-06-14T12:37:49Z</time>
      </trkpt>
      <trkpt lat="49.0755" lon="1.35889">
        <ele>145.3</ele>
        <time>2012-06-14T12:38:01Z</time>
      </trkpt>
      <trkpt lat="49.07524" lon="1.35902">
        <ele>144.82</ele>
        <time>2012-06-14T12:38:14Z</time>
      </trkpt>
      <trkpt lat="49.07483" lon="1.35927">
        <ele>146.26</ele>
        <time>2012-06-14T12:38:29Z</time>
      </trkpt>
      <trkpt lat="49.07473" lon="1.35942">
        <ele>147.7</ele>
        <time>2012-06-14T12:38:34Z</time>
      </trkpt>
      <trkpt lat="49.0745" lon="1.35974">
        <ele>150.1</ele>
        <time>2012-06-14T12:38:45Z</time>
      </trkpt>
      <trkpt lat="49.07433" lon="1.36011">
        <ele>151.54</ele>
        <time>2012-06-14T12:38:56Z</time>
      </trkpt>
      <trkpt lat="49.07398" lon="1.36055">
        <ele>152.99</ele>
        <time>2012-06-14T12:39:10Z</time>
      </trkpt>
      <trkpt lat="49.07373" lon="1.3608">
        <ele>153.95</ele>
        <time>2012-06-14T12:39:20Z</time>
      </trkpt>
      <trkpt lat="49.07347" lon="1.36106">
        <ele>153.47</ele>
        <time>2012-06-14T12:39:30Z</time>
      </trkpt>
      <trkpt lat="49.07321" lon="1.36134">
        <ele>153.95</ele>
        <time>2012-06-14T12:39:41Z</time>
      </trkpt>
      <trkpt lat="49.07299" lon="1.36171">
        <ele>153.95</ele>
        <time>2012-06-14T12:39:52Z</time>
      </trkpt>
      <trkpt lat="49.07282" lon="1.36209">
        <ele>153.95</ele>
        <time>2012-06-14T12:40:02Z</time>
      </trkpt>
      <trkpt lat="49.07279" lon="1.36215">
        <ele>153.95</ele>
        <time>2012-06-14T12:40:04Z</time>
      </trkpt>
      <trkpt lat="49.07282" lon="1.36263">
        <ele>153.95</ele>
        <time>2012-06-14T12:40:14Z</time>
      </trkpt>
      <trkpt lat="49.07285" lon="1.36281">
        <ele>153.95</ele>
        <time>2012-06-14T12:40:18Z</time>
      </trkpt>
      <trkpt lat="49.07291" lon="1.36318">
        <ele>154.91</ele>
        <time>2012-06-14T12:40:27Z</time>
      </trkpt>
      <trkpt lat="49.07302" lon="1.36358">
        <ele>154.91</ele>
        <time>2012-06-14T12:40:37Z</time>
      </trkpt>
      <trkpt lat="49.07306" lon="1.36395">
        <ele>154.43</ele>
        <time>2012-06-14T12:40:46Z</time>
      </trkpt>
      <trkpt lat="49.07303" lon="1.36401">
        <ele>154.91</ele>
        <time>2012-06-14T12:40:48Z</time>
      </trkpt>
      <trkpt lat="49.07273" lon="1.36453">
        <ele>153.95</ele>
        <time>2012-06-14T12:41:04Z</time>
      </trkpt>
      <trkpt lat="49.07233" lon="1.36497">
        <ele>152.99</ele>
        <time>2012-06-14T12:41:19Z</time>
      </trkpt>
      <trkpt lat="49.07215" lon="1.36472">
        <ele>152.03</ele>
        <time>2012-06-14T12:41:29Z</time>
      </trkpt>
      <trkpt lat="49.072" lon="1.36435">
        <ele>151.06</ele>
        <time>2012-06-14T12:41:39Z</time>
      </trkpt>
      <trkpt lat="49.0719" lon="1.36394">
        <ele>150.58</ele>
        <time>2012-06-14T12:41:48Z</time>
      </trkpt>
      <trkpt lat="49.07184" lon="1.3637">
        <ele>149.62</ele>
        <time>2012-06-14T12:41:54Z</time>
      </trkpt>
      <trkpt lat="49.07163" lon="1.36368">
        <ele>146.74</ele>
        <time>2012-06-14T12:42:04Z</time>
      </trkpt>
      <trkpt lat="49.07138" lon="1.36396">
        <ele>143.85</ele>
        <time>2012-06-14T12:42:15Z</time>
      </trkpt>
      <trkpt lat="49.07135" lon="1.364">
        <ele>143.37</ele>
        <time>2012-06-14T12:42:17Z</time>
      </trkpt>
      <trkpt lat="49.07127" lon="1.36409">
        <ele>141.93</ele>
        <time>2012-06-14T12:42:21Z</time>
      </trkpt>
      <trkpt lat="49.07114" lon="1.36424">
        <ele>140.97</ele>
        <time>2012-06-14T12:42:27Z</time>
      </trkpt>
      <trkpt lat="49.07098" lon="1.36439">
        <ele>138.09</ele>
        <time>2012-06-14T12:42:34Z</time>
      </trkpt>
      <trkpt lat="49.07079" lon="1.36459">
        <ele>135.68</ele>
        <time>2012-06-14T12:42:42Z</time>
      </trkpt>
      <trkpt lat="49.07066" lon="1.3647">
        <ele>134.72</ele>
        <time>2012-06-14T12:42:48Z</time>
      </trkpt>
      <trkpt lat="49.07056" lon="1.36484">
        <ele>132.8</ele>
        <time>2012-06-14T12:42:53Z</time>
      </trkpt>
      <trkpt lat="49.07045" lon="1.36491">
        <ele>131.84</ele>
        <time>2012-06-14T12:42:57Z</time>
      </trkpt>
      <trkpt lat="49.0702" lon="1.36502">
        <ele>130.4</ele>
        <time>2012-06-14T12:43:06Z</time>
      </trkpt>
      <trkpt lat="49.0699" lon="1.36511">
        <ele>129.92</ele>
        <time>2012-06-14T12:43:19Z</time>
      </trkpt>
      <trkpt lat="49.06957" lon="1.36519">
        <ele>129.92</ele>
        <time>2012-06-14T12:43:32Z</time>
      </trkpt>
      <trkpt lat="49.06928" lon="1.36511">
        <ele>130.4</ele>
        <time>2012-06-14T12:43:43Z</time>
      </trkpt>
      <trkpt lat="49.06908" lon="1.36514">
        <ele>129.92</ele>
        <time>2012-06-14T12:43:55Z</time>
      </trkpt>
      <trkpt lat="49.06894" lon="1.36502">
        <ele>129.92</ele>
        <time>2012-06-14T12:44:03Z</time>
      </trkpt>
      <trkpt lat="49.06891" lon="1.36496">
        <ele>130.4</ele>
        <time>2012-06-14T12:44:05Z</time>
      </trkpt>
      <trkpt lat="49.06867" lon="1.36452">
        <ele>130.4</ele>
        <time>2012-06-14T12:44:18Z</time>
      </trkpt>
      <trkpt lat="49.06846" lon="1.36425">
        <ele>131.84</ele>
        <time>2012-06-14T12:44:28Z</time>
      </trkpt>
      <trkpt lat="49.06818" lon="1.36393">
        <ele>133.76</ele>
        <time>2012-06-14T12:44:39Z</time>
      </trkpt>
      <trkpt lat="49.06808" lon="1.36376">
        <ele>134.24</ele>
        <time>2012-06-14T12:44:45Z</time>
      </trkpt>
      <trkpt lat="49.06786" lon="1.36349">
        <ele>135.68</ele>
        <time>2012-06-14T12:44:55Z</time>
      </trkpt>
      <trkpt lat="49.06763" lon="1.3632">
        <ele>137.61</ele>
        <time>2012-06-14T12:45:05Z</time>
      </trkpt>
      <trkpt lat="49.06749" lon="1.36287">
        <ele>139.05</ele>
        <time>2012-06-14T12:45:15Z</time>
      </trkpt>
      <trkpt lat="49.06731" lon="1.36251">
        <ele>139.53</ele>
        <time>2012-06-14T12:45:26Z</time>
      </trkpt>
      <trkpt lat="49.06721" lon="1.36231">
        <ele>140.49</ele>
        <time>2012-06-14T12:45:32Z</time>
      </trkpt>
      <trkpt lat="49.06705" lon="1.36196">
        <ele>141.45</ele>
        <time>2012-06-14T12:45:42Z</time>
      </trkpt>
      <trkpt lat="49.06681" lon="1.36155">
        <ele>142.89</ele>
        <time>2012-06-14T12:45:54Z</time>
      </trkpt>
      <trkpt lat="49.06668" lon="1.36122">
        <ele>143.37</ele>
        <time>2012-06-14T12:46:04Z</time>
      </trkpt>
      <trkpt lat="49.06644" lon="1.3611">
        <ele>143.37</ele>
        <time>2012-06-14T12:46:15Z</time>
      </trkpt>
      <trkpt lat="49.06638" lon="1.36111">
        <ele>143.37</ele>
        <time>2012-06-14T12:46:29Z</time>
      </trkpt>
      <trkpt lat="49.06633" lon="1.36113">
        <ele>143.37</ele>
        <time>2012-06-14T12:46:40Z</time>
      </trkpt>
      <trkpt lat="49.06614" lon="1.36123">
        <ele>143.37</ele>
        <time>2012-06-14T12:46:56Z</time>
      </trkpt>
      <trkpt lat="49.06592" lon="1.36132">
        <ele>143.85</ele>
        <time>2012-06-14T12:47:14Z</time>
      </trkpt>
      <trkpt lat="49.06573" lon="1.36141">
        <ele>144.34</ele>
        <time>2012-06-14T12:47:30Z</time>
      </trkpt>
      <trkpt lat="49.06553" lon="1.36152">
        <ele>143.85</ele>
        <time>2012-06-14T12:47:46Z</time>
      </trkpt>
      <trkpt lat="49.06532" lon="1.36161">
        <ele>143.37</ele>
        <time>2012-06-14T12:48:02Z</time>
      </trkpt>
      <trkpt lat="49.06509" lon="1.3617">
        <ele>143.85</ele>
        <time>2012-06-14T12:48:20Z</time>
      </trkpt>
      <trkpt lat="49.06487" lon="1.36179">
        <ele>143.85</ele>
        <time>2012-06-14T12:48:38Z</time>
      </trkpt>
      <trkpt lat="49.06465" lon="1.36188">
        <ele>142.89</ele>
        <time>2012-06-14T12:48:54Z</time>
      </trkpt>
      <trkpt lat="49.06438" lon="1.36204">
        <ele>142.89</ele>
        <time>2012-06-14T12:49:15Z</time>
      </trkpt>
      <trkpt lat="49.06411" lon="1.3622">
        <ele>143.37</ele>
        <time>2012-06-14T12:49:34Z</time>
      </trkpt>
      <trkpt lat="49.06382" lon="1.36239">
        <ele>143.85</ele>
        <time>2012-06-14T12:49:46Z</time>
      </trkpt>
      <trkpt lat="49.06348" lon="1.36255">
        <ele>143.85</ele>
        <time>2012-06-14T12:49:59Z</time>
      </trkpt>
      <trkpt lat="49.06312" lon="1.36265">
        <ele>143.37</ele>
        <time>2012-06-14T12:50:12Z</time>
      </trkpt>
      <trkpt lat="49.06279" lon="1.36268">
        <ele>143.85</ele>
        <time>2012-06-14T12:50:24Z</time>
      </trkpt>
      <trkpt lat="49.06255" lon="1.36267">
        <ele>143.85</ele>
        <time>2012-06-14T12:50:33Z</time>
      </trkpt>
      <trkpt lat="49.06222" lon="1.36261">
        <ele>144.34</ele>
        <time>2012-06-14T12:50:45Z</time>
      </trkpt>
      <trkpt lat="49.06189" lon="1.36256">
        <ele>143.85</ele>
        <time>2012-06-14T12:50:57Z</time>
      </trkpt>
      <trkpt lat="49.06162" lon="1.36252">
        <ele>144.34</ele>
        <time>2012-06-14T12:51:08Z</time>
      </trkpt>
      <trkpt lat="49.06134" lon="1.36246">
        <ele>143.37</ele>
        <time>2012-06-14T12:51:18Z</time>
      </trkpt>
      <trkpt lat="49.06119" lon="1.36242">
        <ele>142.89</ele>
        <time>2012-06-14T12:51:23Z</time>
      </trkpt>
      <trkpt lat="49.06088" lon="1.36237">
        <ele>142.89</ele>
        <time>2012-06-14T12:51:34Z</time>
      </trkpt>
      <trkpt lat="49.06059" lon="1.36231">
        <ele>142.41</ele>
        <time>2012-06-14T12:51:44Z</time>
      </trkpt>
      <trkpt lat="49.06037" lon="1.36226">
        <ele>142.41</ele>
        <time>2012-06-14T12:51:52Z</time>
      </trkpt>
      <trkpt lat="49.06013" lon="1.36221">
        <ele>142.41</ele>
        <time>2012-06-14T12:52:01Z</time>
      </trkpt>
      <trkpt lat="49.05983" lon="1.36212">
        <ele>142.89</ele>
        <time>2012-06-14T12:52:12Z</time>
      </trkpt>
      <trkpt lat="49.05955" lon="1.36205">
        <ele>141.93</ele>
        <time>2012-06-14T12:52:22Z</time>
      </trkpt>
      <trkpt lat="49.05933" lon="1.36204">
        <ele>142.41</ele>
        <time>2012-06-14T12:52:30Z</time>
      </trkpt>
      <trkpt lat="49.05906" lon="1.36205">
        <ele>143.37</ele>
        <time>2012-06-14T12:52:40Z</time>
      </trkpt>
      <trkpt lat="49.05872" lon="1.36213">
        <ele>142.89</ele>
        <time>2012-06-14T12:52:52Z</time>
      </trkpt>
      <trkpt lat="49.05844" lon="1.36216">
        <ele>143.85</ele>
        <time>2012-06-14T12:53:02Z</time>
      </trkpt>
      <trkpt lat="49.05811" lon="1.36205">
        <ele>144.82</ele>
        <time>2012-06-14T12:53:14Z</time>
      </trkpt>
      <trkpt lat="49.05783" lon="1.36186">
        <ele>145.78</ele>
        <time>2012-06-14T12:53:26Z</time>
      </trkpt>
      <trkpt lat="49.05755" lon="1.36166">
        <ele>147.22</ele>
        <time>2012-06-14T12:53:38Z</time>
      </trkpt>
      <trkpt lat="49.05731" lon="1.3615">
        <ele>148.18</ele>
        <time>2012-06-14T12:53:47Z</time>
      </trkpt>
      <trkpt lat="49.05704" lon="1.3613">
        <ele>148.18</ele>
        <time>2012-06-14T12:53:58Z</time>
      </trkpt>
      <trkpt lat="49.05679" lon="1.36108">
        <ele>148.66</ele>
        <time>2012-06-14T12:54:09Z</time>
      </trkpt>
      <trkpt lat="49.05658" lon="1.36082">
        <ele>149.62</ele>
        <time>2012-06-14T12:54:19Z</time>
      </trkpt>
      <trkpt lat="49.05636" lon="1.3605">
        <ele>150.1</ele>
        <time>2012-06-14T12:54:30Z</time>
      </trkpt>
      <trkpt lat="49.05621" lon="1.36025">
        <ele>150.58</ele>
        <time>2012-06-14T12:54:39Z</time>
      </trkpt>
      <trkpt lat="49.05603" lon="1.35995">
        <ele>151.06</ele>
        <time>2012-06-14T12:54:49Z</time>
      </trkpt>
      <trkpt lat="49.05586" lon="1.35967">
        <ele>151.54</ele>
        <time>2012-06-14T12:54:58Z</time>
      </trkpt>
      <trkpt lat="49.05564" lon="1.35929">
        <ele>151.06</ele>
        <time>2012-06-14T12:55:10Z</time>
      </trkpt>
      <trkpt lat="49.05546" lon="1.35899">
        <ele>152.03</ele>
        <time>2012-06-14T12:55:20Z</time>
      </trkpt>
      <trkpt lat="49.05526" lon="1.35864">
        <ele>151.54</ele>
        <time>2012-06-14T12:55:31Z</time>
      </trkpt>
      <trkpt lat="49.05507" lon="1.35834">
        <ele>151.06</ele>
        <time>2012-06-14T12:55:41Z</time>
      </trkpt>
      <trkpt lat="49.05488" lon="1.35801">
        <ele>150.58</ele>
        <time>2012-06-14T12:55:52Z</time>
      </trkpt>
      <trkpt lat="49.05471" lon="1.3577">
        <ele>151.06</ele>
        <time>2012-06-14T12:56:02Z</time>
      </trkpt>
      <trkpt lat="49.05451" lon="1.35728">
        <ele>149.62</ele>
        <time>2012-06-14T12:56:15Z</time>
      </trkpt>
      <trkpt lat="49.05438" lon="1.35694">
        <ele>149.14</ele>
        <time>2012-06-14T12:56:25Z</time>
      </trkpt>
      <trkpt lat="49.05423" lon="1.35655">
        <ele>148.18</ele>
        <time>2012-06-14T12:56:36Z</time>
      </trkpt>
      <trkpt lat="49.05413" lon="1.35614">
        <ele>147.22</ele>
        <time>2012-06-14T12:56:46Z</time>
      </trkpt>
      <trkpt lat="49.0541" lon="1.35598">
        <ele>147.22</ele>
        <time>2012-06-14T12:56:50Z</time>
      </trkpt>
      <trkpt lat="49.05403" lon="1.35573">
        <ele>146.26</ele>
        <time>2012-06-14T12:56:58Z</time>
      </trkpt>
      <trkpt lat="49.05399" lon="1.35527">
        <ele>145.3</ele>
        <time>2012-06-14T12:57:08Z</time>
      </trkpt>
      <trkpt lat="49.05396" lon="1.35502">
        <ele>145.3</ele>
        <time>2012-06-14T12:57:13Z</time>
      </trkpt>
      <trkpt lat="49.05389" lon="1.35482">
        <ele>144.34</ele>
        <time>2012-06-14T12:57:18Z</time>
      </trkpt>
      <trkpt lat="49.0537" lon="1.3545">
        <ele>142.89</ele>
        <time>2012-06-14T12:57:27Z</time>
      </trkpt>
      <trkpt lat="49.05371" lon="1.35438">
        <ele>144.34</ele>
        <time>2012-06-14T12:57:28Z</time>
      </trkpt>
      <trkpt lat="49.0537" lon="1.35439">
        <ele>143.85</ele>
        <time>2012-06-14T12:57:29Z</time>
      </trkpt>
      <trkpt lat="49.05369" lon="1.35442">
        <ele>143.37</ele>
        <time>2012-06-14T12:57:30Z</time>
      </trkpt>
      <trkpt lat="49.05368" lon="1.35446">
        <ele>143.85</ele>
        <time>2012-06-14T12:57:31Z</time>
      </trkpt>
      <trkpt lat="49.05367" lon="1.3545">
        <ele>143.85</ele>
        <time>2012-06-14T12:57:32Z</time>
      </trkpt>
      <trkpt lat="49.05365" lon="1.35454">
        <ele>143.85</ele>
        <time>2012-06-14T12:57:33Z</time>
      </trkpt>
      <trkpt lat="49.05351" lon="1.35489">
        <ele>144.34</ele>
        <time>2012-06-14T12:57:43Z</time>
      </trkpt>
      <trkpt lat="49.05334" lon="1.35518">
        <ele>144.82</ele>
        <time>2012-06-14T12:57:53Z</time>
      </trkpt>
      <trkpt lat="49.05311" lon="1.35542">
        <ele>145.78</ele>
        <time>2012-06-14T12:58:04Z</time>
      </trkpt>
      <trkpt lat="49.05272" lon="1.35567">
        <ele>145.3</ele>
        <time>2012-06-14T12:58:15Z</time>
      </trkpt>
      <trkpt lat="49.05253" lon="1.35581">
        <ele>146.26</ele>
        <time>2012-06-14T12:58:19Z</time>
      </trkpt>
      <trkpt lat="49.05225" lon="1.35612">
        <ele>146.74</ele>
        <time>2012-06-14T12:58:29Z</time>
      </trkpt>
      <trkpt lat="49.05201" lon="1.3564">
        <ele>145.3</ele>
        <time>2012-06-14T12:58:38Z</time>
      </trkpt>
      <trkpt lat="49.05175" lon="1.35666">
        <ele>144.82</ele>
        <time>2012-06-14T12:58:48Z</time>
      </trkpt>
      <trkpt lat="49.05146" lon="1.35687">
        <ele>144.34</ele>
        <time>2012-06-14T12:58:58Z</time>
      </trkpt>
      <trkpt lat="49.0512" lon="1.3571">
        <ele>142.89</ele>
        <time>2012-06-14T12:59:08Z</time>
      </trkpt>
      <trkpt lat="49.0509" lon="1.3574">
        <ele>141.93</ele>
        <time>2012-06-14T12:59:20Z</time>
      </trkpt>
      <trkpt lat="49.05063" lon="1.3577">
        <ele>140.01</ele>
        <time>2012-06-14T12:59:30Z</time>
      </trkpt>
      <trkpt lat="49.05037" lon="1.35792">
        <ele>139.05</ele>
        <time>2012-06-14T12:59:40Z</time>
      </trkpt>
      <trkpt lat="49.05011" lon="1.35793">
        <ele>139.53</ele>
        <time>2012-06-14T12:59:50Z</time>
      </trkpt>
      <trkpt lat="49.04983" lon="1.35807">
        <ele>140.97</ele>
        <time>2012-06-14T13:00:01Z</time>
      </trkpt>
      <trkpt lat="49.04977" lon="1.3581">
        <ele>141.45</ele>
        <time>2012-06-14T13:00:03Z</time>
      </trkpt>
      <trkpt lat="49.04971" lon="1.35815">
        <ele>140.97</ele>
        <time>2012-06-14T13:00:06Z</time>
      </trkpt>
      <trkpt lat="49.04963" lon="1.35819">
        <ele>142.41</ele>
        <time>2012-06-14T13:00:10Z</time>
      </trkpt>
      <trkpt lat="49.04927" lon="1.35841">
        <ele>143.37</ele>
        <time>2012-06-14T13:00:24Z</time>
      </trkpt>
      <trkpt lat="49.04897" lon="1.35858">
        <ele>144.82</ele>
        <time>2012-06-14T13:00:36Z</time>
      </trkpt>
      <trkpt lat="49.0487" lon="1.35876">
        <ele>145.78</ele>
        <time>2012-06-14T13:00:48Z</time>
      </trkpt>
      <trkpt lat="49.04835" lon="1.35898">
        <ele>145.78</ele>
        <time>2012-06-14T13:01:03Z</time>
      </trkpt>
      <trkpt lat="49.04813" lon="1.35911">
        <ele>145.78</ele>
        <time>2012-06-14T13:01:14Z</time>
      </trkpt>
      <trkpt lat="49.04805" lon="1.35913">
        <ele>146.26</ele>
        <time>2012-06-14T13:01:18Z</time>
      </trkpt>
      <trkpt lat="49.04758" lon="1.3592">
        <ele>146.26</ele>
        <time>2012-06-14T13:01:29Z</time>
      </trkpt>
      <trkpt lat="49.04733" lon="1.35941">
        <ele>145.78</ele>
        <time>2012-06-14T13:01:42Z</time>
      </trkpt>
      <trkpt lat="49.04715" lon="1.35963">
        <ele>145.3</ele>
        <time>2012-06-14T13:01:54Z</time>
      </trkpt>
      <trkpt lat="49.04672" lon="1.35988">
        <ele>144.82</ele>
        <time>2012-06-14T13:02:11Z</time>
      </trkpt>
      <trkpt lat="49.0467" lon="1.35991">
        <ele>144.82</ele>
        <time>2012-06-14T13:02:14Z</time>
      </trkpt>
      <trkpt lat="49.04666" lon="1.3599">
        <ele>145.3</ele>
        <time>2012-06-14T13:02:16Z</time>
      </trkpt>
      <trkpt lat="49.04663" lon="1.35965">
        <ele>145.3</ele>
        <time>2012-06-14T13:02:25Z</time>
      </trkpt>
      <trkpt lat="49.04661" lon="1.35953">
        <ele>144.82</ele>
        <time>2012-06-14T13:02:30Z</time>
      </trkpt>
      <trkpt lat="49.04654" lon="1.35919">
        <ele>144.34</ele>
        <time>2012-06-14T13:02:41Z</time>
      </trkpt>
      <trkpt lat="49.04616" lon="1.3588">
        <ele>143.85</ele>
        <time>2012-06-14T13:02:56Z</time>
      </trkpt>
      <trkpt lat="49.04609" lon="1.35851">
        <ele>143.85</ele>
        <time>2012-06-14T13:03:02Z</time>
      </trkpt>
      <trkpt lat="49.04594" lon="1.35793">
        <ele>143.37</ele>
        <time>2012-06-14T13:03:12Z</time>
      </trkpt>
      <trkpt lat="49.0458" lon="1.35762">
        <ele>142.89</ele>
        <time>2012-06-14T13:03:21Z</time>
      </trkpt>
      <trkpt lat="49.04574" lon="1.35761">
        <ele>142.89</ele>
        <time>2012-06-14T13:03:34Z</time>
      </trkpt>
      <trkpt lat="49.04574" lon="1.35761">
        <ele>142.41</ele>
        <time>2012-06-14T13:03:53Z</time>
      </trkpt>
      <trkpt lat="49.04569" lon="1.35763">
        <ele>143.85</ele>
        <time>2012-06-14T13:04:17Z</time>
      </trkpt>
      <trkpt lat="49.04559" lon="1.3576">
        <ele>140.01</ele>
        <time>2012-06-14T13:04:24Z</time>
      </trkpt>
      <trkpt lat="49.04559" lon="1.3576">
        <ele>145.78</ele>
        <time>2012-06-14T13:04:25Z</time>
      </trkpt>
      <trkpt lat="49.04559" lon="1.3576">
        <ele>141.93</ele>
        <time>2012-06-14T13:04:28Z</time>
      </trkpt>
      <trkpt lat="49.04559" lon="1.3576">
        <ele>143.85</ele>
        <time>2012-06-14T13:04:29Z</time>
      </trkpt>
      <trkpt lat="49.04559" lon="1.3576">
        <ele>146.74</ele>
        <time>2012-06-14T13:04:32Z</time>
      </trkpt>
      <trkpt lat="49.04559" lon="1.3576">
        <ele>141.93</ele>
        <time>2012-06-14T13:04:33Z</time>
      </trkpt>
      <trkpt lat="49.04559" lon="1.3576">
        <ele>145.3</ele>
        <time>2012-06-14T13:04:34Z</time>
      </trkpt>
    </trkseg>
  </trk>
</gpx>